M I D A S
Marine Information and Data Acquisition System
Tripno 1818 of the Zeeleeuw from 2009-09-29 06:51:08 to 2009-09-29 16:20:53
Back to CruiseResearch ActivitiesStationsMapUnderway DataData graphs

EquipmentUnitsComment
TimeDGPSUTC
LatitudeDGPSDM.mWGS84
LongitudeDGPSDM.mWGS84
TemperatureSBE03/SBE38deg celciusITS90
ConductivitySBE21S/mITS90
SalinitySBE21 Practical Salinity Units
ChlorophylAChelsea fluorimeterg/lCalibrated in Aceton
Missing or incorrect values are displayed as -999
Sea surface data collected by the RV Zeeleeuw from 2009-09-29 07:01:30 to 2009-09-29 16:25:40
                                                                                    Next 1000 lines
Time Latitude Longitude Temperature Conductivity Salinity ChlorophylA
2009-09-29 07:01:40 51°13.662 2°55.957 22.7485 0.033049 0.165685 12.998701
2009-09-29 07:01:44 51°13.662 2°55.956 22.6798 0.032843 0.16465 12.998701
2009-09-29 07:01:50 51°13.662 2°55.954 22.6819 0.03274 0.164126 12.998701
2009-09-29 07:01:55 51°13.663 2°55.951 22.7207 0.03274 0.164123 13.033525
2009-09-29 07:02:00 51°13.664 2°55.948 22.7322 0.03274 0.164123 12.998701
2009-09-29 07:02:04 51°13.665 2°55.945 22.714 0.03274 0.164123 12.998701
2009-09-29 07:02:10 51°13.666 2°55.941 22.7324 0.032843 0.164642 12.998701
2009-09-29 07:02:16 51°13.668 2°55.935 22.7425 0.032843 0.164645 12.998701
2009-09-29 07:02:21 51°13.67 2°55.931 22.7349 0.032843 0.164647 12.998701
2009-09-29 07:02:27 51°13.671 2°55.925 22.7477 0.032843 0.16465 12.998701
2009-09-29 07:02:32 51°13.673 2°55.92 22.754 0.032843 0.16465 12.998701
2009-09-29 07:02:38 51°13.675 2°55.913 22.7641 0.032843 0.16465 12.998701
2009-09-29 07:02:43 51°13.676 2°55.908 22.7661 0.032946 0.165168 12.998701
2009-09-29 07:02:48 51°13.678 2°55.902 22.7686 0.032843 0.164655 12.998701
2009-09-29 07:02:53 51°13.679 2°55.896 22.7645 0.032843 0.164652 12.998701
2009-09-29 07:02:58 51°13.681 2°55.89 22.773 0.032843 0.164655 12.963877
2009-09-29 07:03:03 51°13.682 2°55.884 22.7717 0.032843 0.164655 12.963877
2009-09-29 07:03:08 51°13.684 2°55.877 22.7677 0.032843 0.164655 12.963877
2009-09-29 07:03:13 51°13.685 2°55.871 22.7645 0.032946 0.165171 12.963877
2009-09-29 07:03:18 51°13.687 2°55.864 22.7367 0.032843 0.164655 12.963877
2009-09-29 07:03:23 51°13.688 2°55.858 22.7352 0.032946 0.165171 12.963877
2009-09-29 07:03:28 51°13.689 2°55.851 22.7609 0.032843 0.164657 12.963877
2009-09-29 07:03:33 51°13.691 2°55.845 22.7584 0.032843 0.164657 12.963877
2009-09-29 07:03:38 51°13.692 2°55.838 22.7685 0.032843 0.164657 12.963877
2009-09-29 07:03:43 51°13.693 2°55.832 22.7667 0.032843 0.16466 12.963877
2009-09-29 07:03:48 51°13.694 2°55.825 22.7834 0.032843 0.16466 12.963877
2009-09-29 07:03:53 51°13.695 2°55.819 22.8041 0.032946 0.165176 12.963877
2009-09-29 07:03:58 51°13.696 2°55.813 22.7748 0.032843 0.164662 12.963877
2009-09-29 07:04:03 51°13.696 2°55.806 22.7813 0.032946 0.165178 12.963877
2009-09-29 07:04:08 51°13.697 2°55.801 22.7682 0.032946 0.165178 12.963877
2009-09-29 07:04:13 51°13.697 2°55.795 22.7557 0.032843 0.164662 12.963877
2009-09-29 07:04:18 51°13.698 2°55.79 22.7574 0.032946 0.165181 12.929053
2009-09-29 07:04:23 51°13.698 2°55.785 22.7738 0.032946 0.165183 12.929053
2009-09-29 07:04:28 51°13.699 2°55.781 22.781 0.033049 0.1657 12.929053
2009-09-29 07:04:33 51°13.699 2°55.779 22.8105 0.033151 0.166224 12.929053
2009-09-29 07:04:38 51°13.699 2°55.777 22.8215 0.033151 0.166224 12.929053
2009-09-29 07:04:43 51°13.699 2°55.777 22.8231 0.033254 0.166746 12.929053
2009-09-29 07:04:48 51°13.7 2°55.778 22.8304 0.033254 0.166753 12.929053
2009-09-29 07:04:52 51°13.701 2°55.779 22.8415 0.033357 0.167275 12.929053
2009-09-29 07:04:57 51°13.702 2°55.782 22.784 0.033151 0.166244 12.929053
2009-09-29 07:05:02 51°13.703 2°55.784 22.7929 0.032946 0.165201 12.929053
2009-09-29 07:05:07 51°13.704 2°55.786 22.7494 0.032946 0.165201 12.929053
2009-09-29 07:05:12 51°13.705 2°55.788 22.7402 0.032843 0.164674 12.929053
2009-09-29 07:05:16 51°13.706 2°55.789 22.7374 0.032637 0.163634 12.929053
2009-09-29 07:05:21 51°13.706 2°55.79 22.7227 0.032637 0.163627 12.929053
2009-09-29 07:05:26 51°13.706 2°55.79 22.703 0.032431 0.162593 12.929053
2009-09-29 07:05:31 51°13.706 2°55.79 22.683 0.03202 0.160515 12.894229
2009-09-29 07:05:36 51°13.705 2°55.789 22.7131 0.03202 0.160515 12.894229
2009-09-29 07:05:41 51°13.704 2°55.788 22.7769 0.03202 0.16051 12.894229
2009-09-29 07:05:46 51°13.703 2°55.786 22.7699 0.03202 0.16051 12.929053
2009-09-29 07:05:51 51°13.701 2°55.785 22.7797 0.032122 0.161026 12.894229
2009-09-29 07:05:55 51°13.7 2°55.784 22.7628 0.032225 0.161549 12.894229
2009-09-29 07:06:01 51°13.699 2°55.783 22.7859 0.032328 0.162067 12.894229
2009-09-29 07:06:07 51°13.697 2°55.782 22.8154 0.032328 0.162067 12.894229
2009-09-29 07:06:12 51°13.697 2°55.781 22.8283 0.032431 0.16259 12.894229
2009-09-29 07:06:18 51°13.697 2°55.782 22.8375 0.032843 0.16467 12.894229
2009-09-29 07:06:23 51°13.698 2°55.782 22.8367 0.032946 0.165196 12.894229
2009-09-29 07:06:28 51°13.7 2°55.783 22.8449 0.033049 0.165725 12.894229
2009-09-29 07:06:33 51°13.703 2°55.784 22.8515 0.033049 0.165732 12.894229
2009-09-29 07:06:38 51°13.706 2°55.785 22.8209 0.033049 0.165732 12.894229
2009-09-29 07:06:43 51°13.708 2°55.786 22.7571 0.03274 0.16418 12.894229
2009-09-29 07:06:47 51°13.71 2°55.786 22.7008 0.032431 0.162624 12.894229
2009-09-29 07:06:52 51°13.712 2°55.786 22.7133 0.032122 0.161055 12.894229
2009-09-29 07:06:57 51°13.713 2°55.786 22.721 0.032122 0.161045 12.894229
2009-09-29 07:07:02 51°13.714 2°55.787 22.6989 0.03202 0.160527 12.894229
2009-09-29 07:07:07 51°13.714 2°55.788 22.643 0.03202 0.160527 12.894229
2009-09-29 07:07:12 51°13.713 2°55.789 22.7811 0.031299 0.156904 12.894229
2009-09-29 07:07:16 51°13.712 2°55.79 22.7754 0.031505 0.157926 12.894229
2009-09-29 07:07:21 51°13.711 2°55.791 22.8018 0.031814 0.159474 12.894229
2009-09-29 07:07:26 51°13.711 2°55.791 22.8266 0.032843 0.164652 12.894229
2009-09-29 07:07:31 51°13.712 2°55.791 22.8409 0.03346 0.16781 12.859405
2009-09-29 07:07:36 51°13.714 2°55.79 22.8391 0.03346 0.16781 12.859405
2009-09-29 07:07:40 51°13.716 2°55.788 22.8358 0.03346 0.167835 12.894229
2009-09-29 07:07:46 51°13.719 2°55.785 22.8123 0.03346 0.16785 12.859405
2009-09-29 07:07:51 51°13.722 2°55.782 22.8035 0.033049 0.165765 12.859405
2009-09-29 07:07:55 51°13.725 2°55.778 22.7254 0.032431 0.162644 12.859405
2009-09-29 07:08:00 51°13.728 2°55.773 22.7069 0.032225 0.161588 12.859405
2009-09-29 07:08:05 51°13.73 2°55.769 22.7409 0.032225 0.161588 12.859405
2009-09-29 07:08:10 51°13.733 2°55.764 22.7738 0.032225 0.161578 12.859405
2009-09-29 07:08:15 51°13.735 2°55.76 22.7619 0.032225 0.16157 12.859405
2009-09-29 07:08:19 51°13.738 2°55.756 22.7413 0.032122 0.161055 12.859405
2009-09-29 07:08:24 51°13.741 2°55.75 22.7501 0.032122 0.161052 12.859405
2009-09-29 07:08:30 51°13.745 2°55.743 22.7466 0.032122 0.161052 12.859405
2009-09-29 07:08:35 51°13.748 2°55.736 22.7265 0.032122 0.161052 12.859405
2009-09-29 07:08:39 51°13.751 2°55.73 22.6861 0.031917 0.160023 12.859405
2009-09-29 07:08:44 51°13.754 2°55.723 22.7032 0.031917 0.160023 12.859405
2009-09-29 07:08:49 51°13.758 2°55.716 22.7032 0.031711 0.158988 12.859405
2009-09-29 07:08:55 51°13.763 2°55.708 22.7079 0.031814 0.159503 12.859405
2009-09-29 07:09:00 51°13.768 2°55.701 22.7097 0.031814 0.159503 12.859405
2009-09-29 07:09:04 51°13.772 2°55.695 22.7154 0.031814 0.159503 12.859405
2009-09-29 07:09:09 51°13.777 2°55.689 22.733 0.031608 0.15847 12.824581
2009-09-29 07:09:15 51°13.783 2°55.681 22.7315 0.031711 0.158985 12.859405
2009-09-29 07:09:20 51°13.789 2°55.675 22.7383 0.031814 0.159501 12.859405
2009-09-29 07:09:24 51°13.793 2°55.67 22.7679 0.031917 0.160023 12.824581
2009-09-29 07:09:29 51°13.799 2°55.664 22.7441 0.031711 0.158993 12.824581
2009-09-29 07:09:35 51°13.806 2°55.658 22.7595 0.031711 0.158993 12.824581
2009-09-29 07:09:40 51°13.813 2°55.652 22.7471 0.031711 0.158995 12.824581
2009-09-29 07:09:44 51°13.818 2°55.647 22.768 0.031711 0.158995 12.824581
2009-09-29 07:09:49 51°13.824 2°55.642 22.7528 0.031814 0.159513 12.824581
2009-09-29 07:09:55 51°13.832 2°55.635 22.7715 0.031814 0.15952 12.824581
2009-09-29 07:09:59 51°13.837 2°55.631 22.7428 0.031711 0.159004 12.824581
2009-09-29 07:10:04 51°13.844 2°55.626 22.7419 0.031711 0.159004 12.824581
2009-09-29 07:10:09 51°13.851 2°55.621 22.7701 0.031608 0.158484 12.824581
2009-09-29 07:10:15 51°13.859 2°55.615 22.7879 0.031711 0.159002 12.824581
2009-09-29 07:10:19 51°13.865 2°55.611 22.7714 0.031711 0.159002 12.824581
2009-09-29 07:10:24 51°13.872 2°55.605 22.7507 0.031711 0.159004 12.824581
2009-09-29 07:10:29 51°13.878 2°55.6 22.7724 0.031505 0.157971 12.824581
2009-09-29 07:10:35 51°13.887 2°55.593 22.7713 0.031505 0.157971 12.824581
2009-09-29 07:10:40 51°13.893 2°55.588 22.7545 0.031608 0.158487 12.824581
2009-09-29 07:10:44 51°13.899 2°55.584 22.7827 0.031608 0.158489 12.824581
2009-09-29 07:10:50 51°13.907 2°55.578 22.7891 0.031711 0.159009 12.824581
2009-09-29 07:10:55 51°13.914 2°55.572 22.778 0.031608 0.158499 12.789757
2009-09-29 07:11:00 51°13.921 2°55.567 22.7573 0.031608 0.158496 12.824581
2009-09-29 07:11:04 51°13.927 2°55.563 22.7316 0.031608 0.158496 12.824581
2009-09-29 07:11:09 51°13.934 2°55.557 21.088 0.031608 0.158494 12.963877
2009-09-29 07:11:15 51°13.942 2°55.551 20.3329 0.045809 0.232447 20.137632
2009-09-29 07:11:20 51°13.95 2°55.546 19.7895 0.041899 0.212398 18.361606
2009-09-29 07:11:24 51°13.955 2°55.541 19.5563 4.48403 30.341647 16.655227
2009-09-29 07:11:29 51°13.962 2°55.536 19.4485 4.651827 31.466667 13.172822
2009-09-29 07:11:35 51°13.972 2°55.53 19.3553 4.651827 31.466667 13.172822
2009-09-29 07:11:40 51°13.979 2°55.525 19.377 4.742714 32.410478 10.038657
2009-09-29 07:11:44 51°13.985 2°55.521 19.3094 4.673444 32.331667 8.43675
2009-09-29 07:11:49 51°13.992 2°55.516 19.284 4.431938 30.976581 7.91439
2009-09-29 07:11:55 51°14.001 2°55.51 19.2472 4.057875 28.466937 7.566149
2009-09-29 07:11:59 51°14.007 2°55.505 19.1387 4.152278 29.486951 7.287557
2009-09-29 07:12:04 51°14.014 2°55.5 19.1062 4.152278 29.486951 7.287557
2009-09-29 07:12:09 51°14.021 2°55.495 19.0785 4.058923 29.000401 7.008964
2009-09-29 07:12:14 51°14.029 2°55.49 19.0714 4.007689 28.715798 6.765196
2009-09-29 07:12:19 51°14.036 2°55.485 18.9878 3.971289 28.509727 6.591076
2009-09-29 07:12:25 51°14.045 2°55.479 18.9522 3.952417 28.43626 6.416955
2009-09-29 07:12:30 51°14.052 2°55.474 18.8946 3.938315 28.377591 6.277659
2009-09-29 07:12:35 51°14.059 2°55.468 18.7806 3.938315 28.377591 6.277659
2009-09-29 07:12:40 51°14.066 2°55.463 18.7452 3.924732 28.32452 6.138363
2009-09-29 07:12:44 51°14.072 2°55.458 18.7343 3.918822 28.32982 6.033891
2009-09-29 07:12:50 51°14.08 2°55.452 18.7388 3.914986 28.326985 5.929418
2009-09-29 07:12:54 51°14.085 2°55.447 18.6993 3.912084 28.35234 5.85977
2009-09-29 07:13:00 51°14.094 2°55.44 18.692 3.910114 28.377353 5.824946
2009-09-29 07:13:05 51°14.101 2°55.435 18.6414 3.910114 28.377353 5.824946
2009-09-29 07:13:10 51°14.108 2°55.43 18.5351 3.911049 28.443538 5.790122
2009-09-29 07:13:14 51°14.113 2°55.425 18.464 3.915508 28.531607 5.755298
2009-09-29 07:13:20 51°14.121 2°55.418 18.4343 3.914472 28.558706 5.720474
2009-09-29 07:13:24 51°14.127 2°55.414 18.3421 3.908458 28.534142 5.720474
2009-09-29 07:13:29 51°14.134 2°55.407 18.3057 3.905763 28.526801 5.720474
2009-09-29 07:13:35 51°14.142 2°55.4 18.3201 3.905763 28.526801 5.720474
2009-09-29 07:13:40 51°14.149 2°55.394 18.2523 3.906282 28.557988 5.720474
2009-09-29 07:13:44 51°14.155 2°55.388 18.1845 3.912504 28.656812 5.755298
2009-09-29 07:13:49 51°14.163 2°55.38 18.1319 3.915097 28.728026 5.755298
2009-09-29 07:13:54 51°14.17 2°55.372 18.085 3.919349 28.813075 5.790122
2009-09-29 07:14:00 51°14.179 2°55.361 18.0693 3.919972 28.865969 5.790122
2009-09-29 07:14:05 51°14.186 2°55.352 18.0599 3.919972 28.865969 5.790122
2009-09-29 07:14:09 51°14.192 2°55.344 18.0337 3.916655 28.877903 5.85977
2009-09-29 07:14:14 51°14.2 2°55.335 18.016 3.9207 28.939817 5.85977
2009-09-29 07:14:20 51°14.209 2°55.323 18.0026 3.919456 28.976162 5.894594
2009-09-29 07:14:25 51°14.217 2°55.312 17.9793 3.922153 29.045652 5.964243
2009-09-29 07:14:29 51°14.223 2°55.304 17.8987 3.929827 29.141888 5.999067
2009-09-29 07:14:34 51°14.23 2°55.293 17.8989 3.929827 29.141888 5.999067
2009-09-29 07:14:40 51°14.239 2°55.279 17.8546 3.932627 29.191931 6.033891
2009-09-29 07:14:45 51°14.246 2°55.267 17.8325 3.93242 29.21384 6.068715
2009-09-29 07:14:50 51°14.253 2°55.256 17.8285 3.93325 29.238162 6.103539
2009-09-29 07:14:54 51°14.259 2°55.246 17.7891 3.937191 29.291653 6.173187
2009-09-29 07:15:00 51°14.267 2°55.232 17.7396 3.940302 29.343458 6.242835
2009-09-29 07:15:04 51°14.273 2°55.222 17.6947 3.940302 29.343458 6.242835
2009-09-29 07:15:09 51°14.28 2°55.21 17.6617 3.952125 29.469334 6.312483
2009-09-29 07:15:15 51°14.289 2°55.195 17.6838 3.960317 29.565349 6.382131
2009-09-29 07:15:20 51°14.296 2°55.183 17.662 3.966022 29.636277 6.451779
2009-09-29 07:15:24 51°14.301 2°55.172 17.6747 3.970377 29.695534 6.486603
2009-09-29 07:15:30 51°14.31 2°55.157 17.7208 3.976393 29.766987 6.591076
2009-09-29 07:15:34 51°14.316 2°55.146 17.7062 3.976393 29.766987 6.591076
2009-09-29 07:15:40 51°14.325 2°55.131 17.698 3.990912 29.921137 6.660724
2009-09-29 07:15:45 51°14.333 2°55.118 17.6412 3.999002 30.020789 6.730372
2009-09-29 07:15:49 51°14.339 2°55.107 17.5944 4.005433 30.0933 6.80002
2009-09-29 07:15:54 51°14.347 2°55.094 17.5846 4.005226 30.104474 6.869668
2009-09-29 07:16:00 51°14.356 2°55.078 17.5654 4.00367 30.09028 6.97414
2009-09-29 07:16:04 51°14.363 2°55.068 17.5854 4.00367 30.09028 6.97414
2009-09-29 07:16:09 51°14.372 2°55.056 17.5351 3.996721 30.02511 7.043788
2009-09-29 07:16:14 51°14.382 2°55.046 17.5284 3.995788 30.023155 7.113436
2009-09-29 07:16:20 51°14.394 2°55.034 17.4778 4.004292 30.113105 7.217908
2009-09-29 07:16:25 51°14.404 2°55.025 17.4475 4.012175 30.203879 7.287557
2009-09-29 07:16:29 51°14.413 2°55.018 17.4489 4.020576 30.299182 7.357205
2009-09-29 07:16:34 51°14.423 2°55.008 17.4274 4.020576 30.299182 7.357205
2009-09-29 07:16:40 51°14.436 2°54.997 17.3888 4.027526 30.369394 7.461677
2009-09-29 07:16:45 51°14.447 2°54.988 17.4371 4.035616 30.454037 7.531325
2009-09-29 07:16:49 51°14.455 2°54.98 17.4311 4.04547 30.553636 7.600973
2009-09-29 07:16:54 51°14.466 2°54.971 17.3952 4.05885 30.690307 7.705445
2009-09-29 07:17:00 51°14.479 2°54.959 17.3906 4.060406 30.725714 7.775093
2009-09-29 07:17:05 51°14.49 2°54.949 17.3752 4.060406 30.725714 7.775093
2009-09-29 07:17:09 51°14.499 2°54.941 17.3909 4.070364 30.825429 7.879566
2009-09-29 07:17:15 51°14.513 2°54.929 17.3782 4.077937 30.905132 7.984038
2009-09-29 07:17:20 51°14.525 2°54.919 17.3799 4.084472 30.967035 8.053686
2009-09-29 07:17:24 51°14.534 2°54.912 17.3866 4.091526 31.033365 8.158158
2009-09-29 07:17:30 51°14.548 2°54.899 17.4016 4.092356 31.050152 8.227806
2009-09-29 07:17:34 51°14.558 2°54.891 17.3775 4.092356 31.050152 8.227806
2009-09-29 07:17:40 51°14.571 2°54.878 17.3556 4.098269 31.112411 8.297454
2009-09-29 07:17:44 51°14.581 2°54.869 17.3444 4.099721 31.130218 8.401926
2009-09-29 07:17:49 51°14.593 2°54.858 17.3661 4.107294 31.197405 8.43675
2009-09-29 07:17:55 51°14.607 2°54.845 17.3471 4.108124 31.209964 8.541223
2009-09-29 07:18:00 51°14.62 2°54.835 17.3442 4.106775 31.197927 8.610871
2009-09-29 07:18:04 51°14.63 2°54.826 17.3582 4.106775 31.197927 8.610871
2009-09-29 07:18:09 51°14.642 2°54.814 17.3444 4.112792 31.251356 8.680519
2009-09-29 07:18:14 51°14.654 2°54.803 17.3411 4.122439 31.342992 8.784991
2009-09-29 07:18:20 51°14.67 2°54.79 17.3331 4.126485 31.382864 8.819815
2009-09-29 07:18:24 51°14.68 2°54.782 17.323 4.126278 31.383578 8.924287
2009-09-29 07:18:29 51°14.693 2°54.77 17.3148 4.133125 31.447242 8.993935
2009-09-29 07:18:34 51°14.705 2°54.759 17.3213 4.133125 31.447242 8.993935
2009-09-29 07:18:40 51°14.721 2°54.746 17.3134 4.137171 31.484061 9.063583
2009-09-29 07:18:45 51°14.734 2°54.735 17.3221 4.132606 31.44718 9.168055
2009-09-29 07:18:49 51°14.744 2°54.726 17.3214 4.14547 31.560742 9.237704
2009-09-29 07:18:54 51°14.757 2°54.715 17.3205 4.148272 31.59201 9.307352
2009-09-29 07:19:00 51°14.773 2°54.702 17.3198 4.14879 31.603275 9.377
2009-09-29 07:19:05 51°14.787 2°54.691 17.3198 4.14879 31.603275 9.377
2009-09-29 07:19:09 51°14.798 2°54.682 17.3172 4.157713 31.682856 9.446648
2009-09-29 07:19:14 51°14.811 2°54.671 17.319 4.158958 31.695943 9.516296
2009-09-29 07:19:20 51°14.827 2°54.657 17.3165 4.156675 31.678414 9.585944
2009-09-29 07:19:24 51°14.837 2°54.647 17.3156 4.15958 31.704366 9.655592
2009-09-29 07:19:29 51°14.85 2°54.636 17.3146 4.165286 31.753521 9.72524
2009-09-29 07:19:34 51°14.864 2°54.624 17.311 4.165286 31.753521 9.72524
2009-09-29 07:19:40 51°14.879 2°54.611 17.3067 4.163419 31.737637 9.794888
2009-09-29 07:19:44 51°14.89 2°54.601 17.3119 4.165805 31.75856 9.864537
2009-09-29 07:19:50 51°14.905 2°54.587 17.3177 4.165079 31.753637 9.934185
2009-09-29 07:19:54 51°14.916 2°54.578 17.3148 4.171822 31.812892 10.003833
2009-09-29 07:20:00 51°14.931 2°54.564 17.3087 4.166946 31.77266 10.038657
2009-09-29 07:20:04 51°14.942 2°54.555 17.3013 4.166946 31.77266 10.038657
2009-09-29 07:20:09 51°14.955 2°54.543 17.303 4.1712 31.810736 10.108305
2009-09-29 07:20:15 51°14.97 2°54.528 17.3018 4.174935 31.845038 10.177953
2009-09-29 07:20:20 51°14.983 2°54.515 17.3021 4.176076 31.854752 10.247601
2009-09-29 07:20:24 51°14.994 2°54.506 17.309 4.176076 31.854123 10.282425
2009-09-29 07:20:29 51°15.007 2°54.495 17.3041 4.172134 31.821825 10.386897
2009-09-29 07:20:35 51°15.023 2°54.481 17.3003 4.172134 31.821825 10.386897
2009-09-29 07:20:40 51°15.036 2°54.469 17.3038 4.179811 31.890326 10.421721
2009-09-29 07:20:45 51°15.049 2°54.458 17.3045 4.18116 31.903701 10.456545
2009-09-29 07:20:49 51°15.06 2°54.448 17.3044 4.183858 31.927934 10.526194
2009-09-29 07:20:54 51°15.073 2°54.436 17.3136 4.182613 31.917962 10.595842
2009-09-29 07:21:00 51°15.088 2°54.422 17.2983 4.186659 31.951793 10.66549
2009-09-29 07:21:05 51°15.102 2°54.41 17.3022 4.186659 31.951793 10.66549
2009-09-29 07:21:09 51°15.112 2°54.401 17.3043 4.188008 31.965176 10.700314
2009-09-29 07:21:14 51°15.126 2°54.389 17.3133 4.184895 31.939926 10.769962
2009-09-29 07:21:20 51°15.141 2°54.376 17.3095 4.188112 31.966691 10.804786
2009-09-29 07:21:25 51°15.155 2°54.364 17.303 4.183235 31.924525 10.909258
2009-09-29 07:21:29 51°15.165 2°54.354 17.3022 4.188423 31.969343 10.978906
2009-09-29 07:21:34 51°15.178 2°54.343 17.3058 4.188423 31.969343 10.978906
2009-09-29 07:21:40 51°15.194 2°54.329 17.3072 4.18863 31.971742 11.01373
2009-09-29 07:21:44 51°15.205 2°54.32 17.3109 4.200873 32.076064 11.083378
2009-09-29 07:21:49 51°15.218 2°54.309 17.3066 4.197864 32.049154 11.153027
2009-09-29 07:21:55 51°15.234 2°54.295 17.309 4.201911 32.083005 11.222675
2009-09-29 07:22:00 51°15.247 2°54.283 17.3067 4.197761 32.048903 11.257499
2009-09-29 07:22:05 51°15.26 2°54.271 17.3127 4.197761 32.048903 11.257499
2009-09-29 07:22:09 51°15.27 2°54.262 17.3105 4.204297 32.105883 11.292323
2009-09-29 07:22:14 51°15.283 2°54.25 17.3139 4.20492 32.111189 11.431619
2009-09-29 07:22:20 51°15.299 2°54.236 17.3156 4.204712 32.108151 11.501267
2009-09-29 07:22:25 51°15.312 2°54.224 17.3148 4.206788 32.125841 11.536091
2009-09-29 07:22:29 51°15.322 2°54.214 17.3137 4.205127 32.111054 11.570915
2009-09-29 07:22:34 51°15.335 2°54.202 17.3206 4.205127 32.111054 11.570915
2009-09-29 07:22:40 51°15.35 2°54.189 17.3168 4.206891 32.125455 11.640563
2009-09-29 07:22:44 51°15.361 2°54.179 17.3117 4.208863 32.140991 11.710211
2009-09-29 07:22:49 51°15.374 2°54.168 17.3166 4.206787 32.123301 11.77986
2009-09-29 07:22:54 51°15.387 2°54.156 17.316 4.209174 32.142374 11.77986
2009-09-29 07:23:00 51°15.402 2°54.143 17.3167 4.204712 32.10371 11.884332
2009-09-29 07:23:05 51°15.415 2°54.131 17.3206 4.204712 32.10371 11.884332
2009-09-29 07:23:09 51°15.426 2°54.122 17.3177 4.210108 32.149064 11.95398
2009-09-29 07:23:14 51°15.438 2°54.11 17.325 4.208966 32.139335 11.988804
2009-09-29 07:23:20 51°15.454 2°54.096 17.3248 4.2099 32.14793 12.093276
2009-09-29 07:23:25 51°15.467 2°54.085 17.3253 4.21239 32.168523 12.1281
2009-09-29 07:23:29 51°15.477 2°54.075 17.3203 4.208655 32.136681 12.162924
2009-09-29 07:23:34 51°15.49 2°54.064 17.3176 4.208655 32.136681 12.162924
2009-09-29 07:23:40 51°15.506 2°54.05 17.319 4.213635 32.179138 12.232572
2009-09-29 07:23:45 51°15.519 2°54.038 17.3198 4.208032 32.13074 12.337044
2009-09-29 07:23:49 51°15.53 2°54.029 17.3223 4.210938 32.153598 12.441517
2009-09-29 07:23:54 51°15.543 2°54.018 17.3273 4.209174 32.136659 12.476341
2009-09-29 07:24:00 51°15.558 2°54.003 17.3295 4.209381 32.139062 12.511165
2009-09-29 07:24:04 51°15.568 2°53.994 17.3265 4.209381 32.139062 12.511165
2009-09-29 07:24:09 51°15.581 2°53.982 17.3299 4.208759 32.135026 12.615637
2009-09-29 07:24:14 51°15.594 2°53.971 17.3268 4.210523 32.151331 12.754933
2009-09-29 07:24:20 51°15.61 2°53.957 17.3297 4.203571 32.092081 13.172822
2009-09-29 07:24:24 51°15.62 2°53.948 17.3279 4.206372 32.114052 12.754933
2009-09-29 07:24:29 51°15.633 2°53.936 17.3309 4.207306 32.120107 12.754933
2009-09-29 07:24:35 51°15.648 2°53.922 17.3247 4.207306 32.120107 12.754933
2009-09-29 07:24:40 51°15.661 2°53.911 17.3237 4.207514 32.121241 12.824581
2009-09-29 07:24:44 51°15.671 2°53.901 17.3268 4.190394 31.974763 12.894229
2009-09-29 07:24:49 51°15.684 2°53.89 17.3239 4.196723 32.028036 12.963877
2009-09-29 07:24:54 51°15.697 2°53.878 17.3248 4.216022 32.192488 12.998701
2009-09-29 07:25:00 51°15.713 2°53.864 17.3261 4.218304 32.211312 13.06835
2009-09-29 07:25:05 51°15.726 2°53.852 17.3256 4.218304 32.211312 13.06835
2009-09-29 07:25:09 51°15.736 2°53.843 17.325 4.219653 32.223448 13.103174
2009-09-29 07:25:14 51°15.749 2°53.831 17.3268 4.219653 32.224721 13.172822
2009-09-29 07:25:20 51°15.764 2°53.817 17.3281 4.221936 32.244822 13.24247
2009-09-29 07:25:24 51°15.775 2°53.808 17.3236 4.222351 32.248998 13.277294
2009-09-29 07:25:29 51°15.788 2°53.797 17.3276 4.221729 32.243689 13.346942
2009-09-29 07:25:34 51°15.801 2°53.785 17.3257 4.221729 32.243689 13.346942
2009-09-29 07:25:40 51°15.816 2°53.772 17.325 4.214984 32.185551 13.381766
2009-09-29 07:25:45 51°15.829 2°53.76 17.324 4.220276 32.231303 13.451414
2009-09-29 07:25:49 51°15.839 2°53.751 17.3251 4.221936 32.245459 13.521062
2009-09-29 07:25:54 51°15.852 2°53.739 17.3233 4.218927 32.219802 13.555886
2009-09-29 07:26:00 51°15.868 2°53.724 17.3248 4.221521 32.24192 13.59071
2009-09-29 07:26:05 51°15.881 2°53.712 17.328 4.221521 32.24192 13.59071
2009-09-29 07:26:09 51°15.891 2°53.703 17.3262 4.222974 32.254307 13.625534
2009-09-29 07:26:14 51°15.904 2°53.69 17.3282 4.22121 32.239266 13.695182
2009-09-29 07:26:20 51°15.919 2°53.676 17.3253 4.22287 32.254059 13.730007
2009-09-29 07:26:24 51°15.93 2°53.667 17.3249 4.220172 32.232329 13.764831
2009-09-29 07:26:29 51°15.943 2°53.655 17.3227 4.220691 32.236116 13.834479
2009-09-29 07:26:35 51°15.958 2°53.641 17.3238 4.220691 32.236116 13.834479
2009-09-29 07:26:40 51°15.971 2°53.629 17.32 4.223596 32.260253 13.904127
2009-09-29 07:26:44 51°15.981 2°53.62 17.3232 4.221314 32.240787 13.938951
2009-09-29 07:26:49 51°15.994 2°53.608 17.3224 4.223596 32.260253 13.973775
2009-09-29 07:26:54 51°16.007 2°53.596 17.3232 4.214673 32.184169 14.008599
2009-09-29 07:27:00 51°16.022 2°53.582 17.3233 4.222247 32.249388 14.078247
2009-09-29 07:27:05 51°16.035 2°53.571 17.3191 4.222247 32.249388 14.078247
2009-09-29 07:27:09 51°16.045 2°53.562 17.3203 4.222455 32.251795 14.113071
2009-09-29 07:27:15 51°16.06 2°53.548 17.3228 4.224323 32.268998 14.147895
2009-09-29 07:27:20 51°16.073 2°53.537 17.3214 4.221314 32.243973 14.217543
2009-09-29 07:27:25 51°16.086 2°53.525 17.3204 4.225049 32.27583 14.287191
2009-09-29 07:27:29 51°16.096 2°53.516 17.32 4.225153 32.276716 14.322015
2009-09-29 07:27:34 51°16.109 2°53.504 17.3206 4.225153 32.276716 14.322015
2009-09-29 07:27:40 51°16.124 2°53.49 17.3232 4.222559 32.255866 14.356839
2009-09-29 07:27:44 51°16.134 2°53.481 17.3176 4.22536 32.279761 14.391664
2009-09-29 07:27:50 51°16.149 2°53.467 17.3159 4.225672 32.282416 14.426488
2009-09-29 07:27:54 51°16.159 2°53.457 17.3138 4.224219 32.270664 14.461312
2009-09-29 07:28:00 51°16.175 2°53.443 17.3124 4.224219 32.270664 14.496136
2009-09-29 07:28:05 51°16.188 2°53.432 17.3092 4.224219 32.270664 14.496136
2009-09-29 07:28:09 51°16.198 2°53.422 17.3103 4.225153 32.278629 14.53096
2009-09-29 07:28:14 51°16.211 2°53.409 17.3091 4.224427 32.273071 14.600608
2009-09-29 07:28:20 51°16.227 2°53.395 17.3071 4.219342 32.230982 14.600608
2009-09-29 07:28:25 51°16.24 2°53.384 17.3045 4.226191 32.291309 14.635432
2009-09-29 07:28:29 51°16.25 2°53.375 17.3038 4.228992 32.316488 14.670256
2009-09-29 07:28:34 51°16.263 2°53.363 17.3062 4.228992 32.316488 14.670256
2009-09-29 07:28:40 51°16.279 2°53.349 17.3044 4.230756 32.332818 14.70508
2009-09-29 07:28:44 51°16.289 2°53.34 17.3011 4.230445 32.332079 14.739904
2009-09-29 07:28:50 51°16.305 2°53.326 17.3049 4.23003 32.329176 14.774728
2009-09-29 07:28:54 51°16.315 2°53.317 17.3009 4.231482 32.342852 14.809552
2009-09-29 07:29:00 51°16.331 2°53.303 17.2987 4.230549 32.336161 14.844376
2009-09-29 07:29:04 51°16.342 2°53.294 17.2976 4.230549 32.336161 14.844376
2009-09-29 07:29:09 51°16.355 2°53.282 17.298 4.228473 32.31845 14.8792
2009-09-29 07:29:15 51°16.371 2°53.268 17.2952 4.229719 32.330355 14.914024
2009-09-29 07:29:20 51°16.384 2°53.256 17.2953 4.232313 32.353135 14.948848
2009-09-29 07:29:24 51°16.395 2°53.248 17.2946 4.230549 32.338718 14.983672
2009-09-29 07:29:29 51°16.408 2°53.238 17.2911 4.231794 32.350626 15.018497
2009-09-29 07:29:35 51°16.424 2°53.225 17.2903 4.231794 32.350626 15.018497
2009-09-29 07:29:40 51°16.437 2°53.214 17.2883 4.232001 32.354316 15.053321
2009-09-29 07:29:45 51°16.451 2°53.204 17.2885 4.232416 32.35914 15.088145
2009-09-29 07:29:49 51°16.462 2°53.196 17.2892 4.233247 32.367507 15.088145
2009-09-29 07:29:54 51°16.475 2°53.187 17.2879 4.233039 32.367015 15.157793
2009-09-29 07:30:00 51°16.491 2°53.175 17.2855 4.233039 32.367655 15.157793
2009-09-29 07:30:05 51°16.505 2°53.165 17.2843 4.233039 32.367655 15.157793
2009-09-29 07:30:09 51°16.516 2°53.158 17.2837 4.234492 32.38134 15.192617
2009-09-29 07:30:14 51°16.529 2°53.148 17.2848 4.233558 32.374646 15.227441
2009-09-29 07:30:20 51°16.545 2°53.137 17.2819 4.232832 32.370365 15.262265
2009-09-29 07:30:25 51°16.559 2°53.128 17.2787 4.234181 32.382525 15.297089
2009-09-29 07:30:29 51°16.569 2°53.121 17.282 4.233766 32.379621 15.297089
2009-09-29 07:30:34 51°16.583 2°53.112 17.278 4.233766 32.379621 15.297089
2009-09-29 07:30:40 51°16.599 2°53.1 17.2776 4.23169 32.362539 15.331913
2009-09-29 07:30:44 51°16.609 2°53.092 17.2772 4.235011 32.392818 15.331913
2009-09-29 07:30:49 51°16.623 2°53.083 17.2729 4.23252 32.371549 15.366737
2009-09-29 07:30:55 51°16.639 2°53.072 17.2753 4.228059 32.335366 15.401561
2009-09-29 07:31:00 51°16.653 2°53.063 17.2753 4.235322 32.398682 15.436385
2009-09-29 07:31:05 51°16.666 2°53.052 17.273 4.235322 32.398682 15.436385
2009-09-29 07:31:10 51°16.679 2°53.042 17.2741 4.234077 32.389328 15.471209
2009-09-29 07:31:14 51°16.69 2°53.035 17.278 4.236048 32.406169 15.506033
2009-09-29 07:31:20 51°16.706 2°53.023 17.2725 4.235218 32.401002 15.506033
2009-09-29 07:31:25 51°16.719 2°53.014 17.2696 4.23636 32.412036 15.540857
2009-09-29 07:31:30 51°16.732 2°53.004 17.2722 4.236152 32.410904 15.540857
2009-09-29 07:31:34 51°16.743 2°52.997 17.2702 4.236152 32.410904 15.540857
2009-09-29 07:31:40 51°16.759 2°52.984 17.2702 4.236879 32.417752 15.575681
2009-09-29 07:31:44 51°16.769 2°52.976 17.2694 4.235841 32.409527 15.610505
2009-09-29 07:31:49 51°16.782 2°52.965 17.2687 4.235737 32.408641 15.645329
2009-09-29 07:31:55 51°16.798 2°52.953 17.2691 4.237086 32.420166 15.680154
2009-09-29 07:32:00 51°16.811 2°52.942 17.2677 4.235426 32.407264 15.714978
2009-09-29 07:32:05 51°16.824 2°52.931 17.2697 4.235426 32.407264 15.714978
2009-09-29 07:32:09 51°16.834 2°52.922 17.2686 4.235841 32.411452 15.714978
2009-09-29 07:32:14 51°16.847 2°52.911 17.2667 4.236671 32.419828 15.714978
2009-09-29 07:32:20 51°16.863 2°52.898 17.2666 4.235737 32.41249 15.714978
2009-09-29 07:32:25 51°16.876 2°52.887 17.2683 4.238124 32.433526 15.749802
2009-09-29 07:32:29 51°16.886 2°52.878 17.2686 4.236983 32.424414 15.749802
2009-09-29 07:32:34 51°16.899 2°52.866 17.271 4.236983 32.424414 15.749802
2009-09-29 07:32:40 51°16.914 2°52.853 17.2676 4.238643 32.438602 15.749802
2009-09-29 07:32:45 51°16.927 2°52.841 17.2679 4.238435 32.437471 15.784626
2009-09-29 07:32:49 51°16.937 2°52.832 17.2684 4.233558 32.396436 15.81945
2009-09-29 07:32:54 51°16.95 2°52.82 17.2684 4.237709 32.431263 15.81945
2009-09-29 07:33:00 51°16.965 2°52.806 17.2675 4.237086 32.425943 15.81945
2009-09-29 07:33:05 51°16.978 2°52.794 17.2672 4.237086 32.425943 15.81945
2009-09-29 07:33:09 51°16.988 2°52.784 17.2686 4.236567 32.420867 15.854274
2009-09-29 07:33:15 51°17.003 2°52.769 17.268 4.241444 32.46319 15.854274
2009-09-29 07:33:20 51°17.015 2°52.757 17.2693 4.240199 32.45319 15.889098
2009-09-29 07:33:24 51°17.025 2°52.746 17.2677 4.242171 32.470042 15.889098
2009-09-29 07:33:30 51°17.04 2°52.731 17.2709 4.19911 32.102274 15.923922
2009-09-29 07:33:35 51°17.053 2°52.719 17.2706 4.19911 32.102274 15.923922
2009-09-29 07:33:40 51°17.065 2°52.706 17.2743 4.242482 32.472703 15.923922
2009-09-29 07:33:44 51°17.075 2°52.695 17.271 4.242482 32.472703 15.958746
2009-09-29 07:33:49 51°17.087 2°52.682 17.2716 4.243208 32.478911 15.958746
2009-09-29 07:33:54 51°17.099 2°52.669 17.2715 4.244142 32.486895 15.99357
2009-09-29 07:34:00 51°17.114 2°52.653 17.2721 4.242793 32.475363 15.99357
2009-09-29 07:34:05 51°17.126 2°52.64 17.2729 4.242793 32.475363 15.99357
2009-09-29 07:34:09 51°17.136 2°52.63 17.2762 4.243312 32.479155 15.99357
2009-09-29 07:34:14 51°17.148 2°52.618 17.278 4.24435 32.487382 16.028394
2009-09-29 07:34:20 51°17.163 2°52.605 17.2798 4.244765 32.490287 16.028394
2009-09-29 07:34:25 51°17.176 2°52.596 17.2791 4.243935 32.483191 16.028394
2009-09-29 07:34:29 51°17.187 2°52.59 17.2769 4.243935 32.482548 16.063218
2009-09-29 07:34:34 51°17.2 2°52.582 17.2822 4.243935 32.482548 16.063218
2009-09-29 07:34:39 51°17.214 2°52.575 17.2812 4.243831 32.481661 16.063218
2009-09-29 07:34:45 51°17.231 2°52.567 17.2804 4.246218 32.500132 16.063218
2009-09-29 07:34:49 51°17.243 2°52.562 17.2821 4.245802 32.495298 16.098042
2009-09-29 07:34:54 51°17.256 2°52.556 17.2816 4.243623 32.475387 16.098042
2009-09-29 07:35:00 51°17.274 2°52.55 17.2822 4.246218 32.496916 16.098042
2009-09-29 07:35:05 51°17.288 2°52.544 17.2829 4.246218 32.496916 16.098042
2009-09-29 07:35:09 51°17.3 2°52.541 17.2829 4.246633 32.500464 16.132866
2009-09-29 07:35:14 51°17.315 2°52.537 17.2863 4.246217 32.496273 16.132866
2009-09-29 07:35:20 51°17.331 2°52.532 17.287 4.248293 32.513368 16.132866
2009-09-29 07:35:24 51°17.343 2°52.53 17.2912 4.247463 32.506916 16.16769
2009-09-29 07:35:29 51°17.358 2°52.528 17.2953 4.249123 32.520464 16.16769
2009-09-29 07:35:35 51°17.376 2°52.526 17.2931 4.249123 32.520464 16.16769
2009-09-29 07:35:40 51°17.391 2°52.525 17.2953 4.249227 32.521351 16.16769
2009-09-29 07:35:44 51°17.403 2°52.525 17.2943 4.248915 32.518046 16.16769
2009-09-29 07:35:49 51°17.418 2°52.525 17.2961 4.248604 32.514098 16.16769
2009-09-29 07:35:54 51°17.433 2°52.526 17.2962 4.249745 32.522567 16.202514
2009-09-29 07:36:00 51°17.45 2°52.526 17.2977 4.248708 32.511768 16.202514
2009-09-29 07:36:05 51°17.465 2°52.527 17.2979 4.248708 32.511768 16.202514
2009-09-29 07:36:09 51°17.476 2°52.529 17.2982 4.249227 32.514272 16.202514
2009-09-29 07:36:15 51°17.494 2°52.529 17.3016 4.251509 32.532495 16.202514
2009-09-29 07:36:20 51°17.509 2°52.53 17.3018 4.251924 32.535398 16.237338
2009-09-29 07:36:25 51°17.524 2°52.53 17.3024 4.251094 32.52766 16.237338
2009-09-29 07:36:29 51°17.536 2°52.532 17.3035 4.252132 32.535241 16.237338
2009-09-29 07:36:34 51°17.55 2°52.533 17.3007 4.252132 32.535241 16.237338
2009-09-29 07:36:40 51°17.568 2°52.535 17.3075 4.253585 32.547656 16.272162
2009-09-29 07:36:44 51°17.58 2°52.536 17.3045 4.254311 32.55322 16.272162
2009-09-29 07:36:50 51°17.599 2°52.537 17.3061 4.254104 32.550159 16.272162
2009-09-29 07:36:54 51°17.611 2°52.538 17.3065 4.254519 32.552418 16.272162
2009-09-29 07:37:00 51°17.629 2°52.539 17.3091 4.255245 32.557981 16.306987
2009-09-29 07:37:05 51°17.644 2°52.54 17.3118 4.255245 32.557981 16.306987
2009-09-29 07:37:09 51°17.656 2°52.541 17.3105 4.255556 32.560642 16.272162
2009-09-29 07:37:14 51°17.671 2°52.542 17.3118 4.255868 32.562014 16.306987
2009-09-29 07:37:20 51°17.689 2°52.544 17.3099 4.255868 32.562014 16.306987
2009-09-29 07:37:25 51°17.704 2°52.545 17.3132 4.256801 32.568707 16.306987
2009-09-29 07:37:29 51°17.716 2°52.546 17.3114 4.256905 32.568949 16.306987
2009-09-29 07:37:35 51°17.734 2°52.546 17.3108 4.256905 32.568949 16.306987
2009-09-29 07:37:40 51°17.749 2°52.547 17.3148 4.258254 32.579189 16.341811
2009-09-29 07:37:44 51°17.761 2°52.548 17.3119 4.257943 32.57524 16.341811
2009-09-29 07:37:50 51°17.779 2°52.549 17.3133 4.258877 32.582576 16.341811
2009-09-29 07:37:54 51°17.792 2°52.549 17.314 4.258877 32.582576 16.341811
2009-09-29 07:38:00 51°17.809 2°52.55 17.3158 4.259292 32.585478 16.376635
2009-09-29 07:38:04 51°17.822 2°52.551 17.3168 4.259292 32.585478 16.376635
2009-09-29 07:38:09 51°17.837 2°52.551 17.3165 4.260641 32.597006 16.376635
2009-09-29 07:38:15 51°17.855 2°52.552 17.321 4.260018 32.591686 16.376635
2009-09-29 07:38:20 51°17.87 2°52.553 17.3178 4.26116 32.600796 16.376635
2009-09-29 07:38:24 51°17.882 2°52.553 17.3182 4.261263 32.601038 16.376635
2009-09-29 07:38:29 51°17.897 2°52.554 17.32 4.26199 32.6066 16.376635
2009-09-29 07:38:35 51°17.915 2°52.555 17.3258 4.26199 32.6066 16.376635
2009-09-29 07:38:40 51°17.93 2°52.555 17.324 4.260329 32.591768 16.376635
2009-09-29 07:38:45 51°17.944 2°52.556 17.3217 4.26199 32.604666 16.411459
2009-09-29 07:38:49 51°17.956 2°52.557 17.3234 4.263339 32.614904 16.411459
2009-09-29 07:38:54 51°17.971 2°52.557 17.3227 4.259499 32.582097 16.411459
2009-09-29 07:39:00 51°17.989 2°52.557 17.3199 4.263131 32.611841 16.411459
2009-09-29 07:39:05 51°18.004 2°52.558 17.3225 4.263131 32.611841 16.411459
2009-09-29 07:39:09 51°18.016 2°52.558 17.3198 4.262093 32.602329 16.411459
2009-09-29 07:39:14 51°18.031 2°52.559 17.3246 4.26365 32.61434 16.411459
2009-09-29 07:39:20 51°18.049 2°52.56 17.3233 4.262924 32.607489 16.446283
2009-09-29 07:39:25 51°18.064 2°52.56 17.3229 4.263754 32.614582 16.411459
2009-09-29 07:39:29 51°18.076 2°52.561 17.3255 4.26531 32.627882 16.446283
2009-09-29 07:39:34 51°18.09 2°52.561 17.33 4.26531 32.627882 16.446283
2009-09-29 07:39:40 51°18.108 2°52.562 17.3263 4.263339 32.611035 16.446283
2009-09-29 07:39:45 51°18.123 2°52.563 17.3231 4.264791 32.623448 16.446283
2009-09-29 07:39:50 51°18.138 2°52.564 17.3229 4.265622 32.630542 16.446283
2009-09-29 07:39:56 51°18.155 2°52.566 17.3258 4.262093 32.600396 16.446283
2009-09-29 07:40:01 51°18.169 2°52.566 17.3264 4.268735 32.6565 16.446283
2009-09-29 07:40:05 51°18.18 2°52.566 17.3262 4.268735 32.6565 16.446283
2009-09-29 07:40:11 51°18.198 2°52.566 17.3273 4.268527 32.65408 16.446283
2009-09-29 07:40:15 51°18.21 2°52.567 17.3266 4.268735 32.654563 16.446283
2009-09-29 07:40:20 51°18.225 2°52.567 17.3282 4.262716 32.603782 16.481107
2009-09-29 07:40:25 51°18.239 2°52.568 17.3295 4.26915 32.658755 16.481107
2009-09-29 07:40:30 51°18.254 2°52.567 17.329 4.269669 32.663189 16.481107
2009-09-29 07:40:35 51°18.27 2°52.567 17.3281 4.269669 32.663189 16.481107
2009-09-29 07:40:40 51°18.284 2°52.568 17.3262 4.269461 32.661416 16.481107
2009-09-29 07:40:45 51°18.299 2°52.568 17.3262 4.269669 32.662544 16.481107
2009-09-29 07:40:49 51°18.311 2°52.568 17.3271 4.269461 32.66077 16.481107
2009-09-29 07:40:54 51°18.326 2°52.568 17.3247 4.269046 32.656577 16.515931
2009-09-29 07:41:00 51°18.344 2°52.569 17.3249 4.269565 32.661011 16.515931
2009-09-29 07:41:04 51°18.357 2°52.569 17.3257 4.269565 32.661011 16.515931
2009-09-29 07:41:09 51°18.372 2°52.57 17.324 4.26998 32.663913 16.515931
2009-09-29 07:41:14 51°18.387 2°52.57 17.3252 4.269772 32.662785 16.515931
2009-09-29 07:41:20 51°18.405 2°52.571 17.3247 4.270084 32.666091 16.515931
2009-09-29 07:41:25 51°18.42 2°52.571 17.326 4.270603 32.670525 16.515931
2009-09-29 07:41:29 51°18.432 2°52.573 17.325 4.269254 32.659642 16.515931
2009-09-29 07:41:34 51°18.447 2°52.573 17.3264 4.269254 32.659642 16.515931
2009-09-29 07:41:40 51°18.465 2°52.573 17.325 4.27081 32.672945 16.515931
2009-09-29 07:41:45 51°18.48 2°52.574 17.3269 4.270499 32.670284 16.515931
2009-09-29 07:41:50 51°18.495 2°52.573 17.3276 4.270499 32.670284 16.515931
2009-09-29 07:41:54 51°18.507 2°52.574 17.3278 4.27081 32.672945 16.550755
2009-09-29 07:42:00 51°18.526 2°52.574 17.3289 4.271225 32.677138 16.550755
2009-09-29 07:42:05 51°18.541 2°52.575 17.3265 4.271225 32.677138 16.550755
2009-09-29 07:42:09 51°18.553 2°52.575 17.3298 4.270706 32.672058 16.550755
2009-09-29 07:42:14 51°18.567 2°52.575 17.3291 4.270706 32.672058 16.515931
2009-09-29 07:42:20 51°18.585 2°52.576 17.3299 4.271433 32.67762 16.550755
2009-09-29 07:42:24 51°18.598 2°52.577 17.33 4.271952 32.681408 16.550755
2009-09-29 07:42:29 51°18.612 2°52.577 17.3294 4.271744 32.679634 16.550755
2009-09-29 07:42:35 51°18.631 2°52.578 17.3298 4.271744 32.679634 16.550755
2009-09-29 07:42:40 51°18.646 2°52.578 17.3287 4.270914 32.67254 16.550755
2009-09-29 07:42:44 51°18.658 2°52.578 17.3332 4.27164 32.678101 16.550755
2009-09-29 07:42:49 51°18.673 2°52.578 17.3339 4.272055 32.681649 16.585579
2009-09-29 07:42:55 51°18.691 2°52.579 17.3307 4.272159 32.68189 16.550755
2009-09-29 07:43:00 51°18.706 2°52.578 17.3322 4.271848 32.679229 16.585579
2009-09-29 07:43:05 51°18.72 2°52.579 17.336 4.271848 32.679229 16.585579
2009-09-29 07:43:09 51°18.732 2°52.579 17.3356 4.27247 32.68455 16.550755
2009-09-29 07:43:14 51°18.747 2°52.58 17.3325 4.269876 32.661735 16.550755
2009-09-29 07:43:20 51°18.765 2°52.58 17.3334 4.272678 32.685032 16.585579
2009-09-29 07:43:25 51°18.78 2°52.582 17.3338 4.272263 32.681484 16.585579
2009-09-29 07:43:29 51°18.792 2°52.582 17.3351 4.271952 32.678178 16.585579
2009-09-29 07:43:34 51°18.806 2°52.583 17.339 4.271952 32.678178 16.585579
2009-09-29 07:43:40 51°18.823 2°52.584 17.3396 4.272782 32.684626 16.585579
2009-09-29 07:43:44 51°18.835 2°52.584 17.3398 4.272885 32.684867 16.585579
2009-09-29 07:43:50 51°18.853 2°52.585 17.3374 4.272885 32.684221 16.585579
2009-09-29 07:43:54 51°18.864 2°52.585 17.3393 4.273301 32.687768 16.620403
2009-09-29 07:44:00 51°18.882 2°52.585 17.3416 4.273404 32.688655 16.620403
2009-09-29 07:44:05 51°18.897 2°52.586 17.3448 4.273404 32.688655 16.620403
2009-09-29 07:44:09 51°18.909 2°52.586 17.345 4.273404 32.688009 16.620403
2009-09-29 07:44:15 51°18.926 2°52.587 17.3454 4.273404 32.68607 16.620403
2009-09-29 07:44:20 51°18.941 2°52.587 17.3477 4.273404 32.68607 16.620403
2009-09-29 07:44:25 51°18.956 2°52.587 17.3512 4.274546 32.695178 16.620403
2009-09-29 07:44:30 51°18.97 2°52.587 17.3519 4.274546 32.694532 16.620403
2009-09-29 07:44:34 51°18.982 2°52.588 17.3499 4.274546 32.694532 16.620403
2009-09-29 07:44:40 51°19 2°52.589 17.3546 4.274753 32.695013 16.620403
2009-09-29 07:44:44 51°19.012 2°52.589 17.3553 4.275168 32.697268 16.620403
2009-09-29 07:44:50 51°19.03 2°52.59 17.3605 4.275065 32.695735 16.620403
2009-09-29 07:44:55 51°19.045 2°52.59 17.3609 4.275895 32.701536 16.655227
2009-09-29 07:45:00 51°19.06 2°52.591 17.3639 4.275583 32.696938 16.620403
2009-09-29 07:45:04 51°19.072 2°52.591 17.3648 4.275583 32.696938 16.620403
2009-09-29 07:45:09 51°19.087 2°52.592 17.3692 4.276517 32.703624 16.620403
2009-09-29 07:45:15 51°19.105 2°52.593 17.3712 4.276413 32.701446 16.655227
2009-09-29 07:45:20 51°19.12 2°52.593 17.3718 4.277762 32.711678 16.655227
2009-09-29 07:45:24 51°19.132 2°52.594 17.3752 4.278178 32.713286 16.620403
2009-09-29 07:45:29 51°19.147 2°52.594 17.3756 4.278489 32.714006 16.655227
2009-09-29 07:45:35 51°19.166 2°52.595 17.3808 4.278489 32.714006 16.655227
2009-09-29 07:45:40 51°19.181 2°52.596 17.3814 4.278696 32.713841 16.655227
2009-09-29 07:45:45 51°19.196 2°52.596 17.3845 4.278696 32.711902 16.655227
2009-09-29 07:45:49 51°19.209 2°52.596 17.3861 4.279215 32.71375 16.655227
2009-09-29 07:45:54 51°19.224 2°52.596 17.3886 4.278385 32.704722 16.655227
2009-09-29 07:46:00 51°19.242 2°52.596 17.3913 4.280772 32.723167 16.655227
2009-09-29 07:46:05 51°19.257 2°52.598 17.3928 4.280772 32.723167 16.655227
2009-09-29 07:46:09 51°19.269 2°52.598 17.3917 4.281083 32.723888 16.655227
2009-09-29 07:46:14 51°19.284 2°52.598 17.3935 4.28129 32.72243 16.655227
2009-09-29 07:46:20 51°19.302 2°52.599 17.397 4.281913 32.725808 16.690051
2009-09-29 07:46:25 51°19.317 2°52.599 17.3968 4.282121 32.725643 16.690051
2009-09-29 07:46:29 51°19.329 2°52.6 17.3959 4.282224 32.724591 16.690051
2009-09-29 07:46:35 51°19.347 2°52.6 17.3965 4.282224 32.724591 16.690051
2009-09-29 07:46:40 51°19.363 2°52.6 17.3978 4.282639 32.726197 16.690051
2009-09-29 07:46:45 51°19.378 2°52.6 17.4015 4.284404 32.739967 16.690051
2009-09-29 07:46:50 51°19.393 2°52.601 17.3995 4.2843 32.737788 16.690051
2009-09-29 07:46:54 51°19.405 2°52.601 17.4013 4.284819 32.74028 16.690051
2009-09-29 07:47:00 51°19.423 2°52.602 17.4023 4.285649 32.746721 16.690051
2009-09-29 07:47:04 51°19.435 2°52.602 17.401 4.285649 32.746721 16.690051
2009-09-29 07:47:09 51°19.45 2°52.602 17.4033 4.284922 32.739874 16.690051
2009-09-29 07:47:15 51°19.469 2°52.602 17.4027 4.285234 32.741885 16.690051
2009-09-29 07:47:20 51°19.484 2°52.602 17.4061 4.285234 32.740593 16.690051
2009-09-29 07:47:24 51°19.496 2°52.602 17.4037 4.284403 32.732861 16.690051
2009-09-29 07:47:29 51°19.512 2°52.603 17.4034 4.285337 32.740187 16.690051
2009-09-29 07:47:35 51°19.53 2°52.602 17.4035 4.285337 32.740187 16.690051
2009-09-29 07:47:40 51°19.545 2°52.603 17.4037 4.286375 32.749045 16.690051
2009-09-29 07:47:45 51°19.56 2°52.604 17.4037 4.285752 32.742438 16.690051
2009-09-29 07:47:49 51°19.572 2°52.605 17.4047 4.285752 32.741792 16.690051
2009-09-29 07:47:54 51°19.587 2°52.605 17.4059 4.286686 32.748472 16.690051
2009-09-29 07:48:00 51°19.605 2°52.607 17.4054 4.287309 32.754433 16.690051
2009-09-29 07:48:05 51°19.621 2°52.609 17.4044 4.287309 32.754433 16.690051
2009-09-29 07:48:09 51°19.633 2°52.609 17.4061 4.287828 32.758216 16.690051
2009-09-29 07:48:14 51°19.647 2°52.611 17.4088 4.287205 32.752901 16.690051
2009-09-29 07:48:20 51°19.665 2°52.612 17.4057 4.288347 32.762645 16.724875
2009-09-29 07:48:25 51°19.68 2°52.615 17.4056 4.288451 32.762238 16.724875
2009-09-29 07:48:29 51°19.692 2°52.615 17.4044 4.288139 32.759581 16.724875
2009-09-29 07:48:34 51°19.708 2°52.618 17.4048 4.288139 32.759581 16.724875
2009-09-29 07:48:40 51°19.726 2°52.62 17.4054 4.286479 32.745409 16.724875
2009-09-29 07:48:45 51°19.741 2°52.622 17.4034 4.288347 32.760706 16.724875
2009-09-29 07:48:49 51°19.753 2°52.624 17.4059 4.287932 32.757163 16.690051
2009-09-29 07:48:54 51°19.768 2°52.626 17.4048 4.288658 32.763363 16.724875
2009-09-29 07:49:00 51°19.786 2°52.628 17.4045 4.287517 32.754266 16.724875
2009-09-29 07:49:05 51°19.801 2°52.629 17.4036 4.287517 32.754266 16.724875
2009-09-29 07:49:09 51°19.813 2°52.631 17.4047 4.288347 32.761352 16.724875
2009-09-29 07:49:15 51°19.831 2°52.634 17.4041 4.288347 32.760706 16.690051
2009-09-29 07:49:20 51°19.846 2°52.635 17.4017 4.287828 32.756923 16.724875
2009-09-29 07:49:24 51°19.858 2°52.637 17.4018 4.288866 32.765135 16.690051
2009-09-29 07:49:29 51°19.873 2°52.639 17.4008 4.288139 32.759581 16.724875
2009-09-29 07:49:35 51°19.891 2°52.641 17.4015 4.288139 32.759581 16.724875
2009-09-29 07:49:40 51°19.906 2°52.643 17.4021 4.288554 32.762478 16.724875
2009-09-29 07:49:45 51°19.92 2°52.645 17.4034 4.285441 32.736552 16.724875
2009-09-29 07:49:49 51°19.932 2°52.646 17.4024 4.287413 32.754026 16.690051
2009-09-29 07:49:55 51°19.95 2°52.648 17.4016 4.287932 32.758455 16.724875
2009-09-29 07:50:00 51°19.966 2°52.651 17.4012 4.287205 32.753547 16.724875
2009-09-29 07:50:05 51°19.981 2°52.652 17.3991 4.287205 32.753547 16.724875
2009-09-29 07:50:09 51°19.993 2°52.655 17.3976 4.287932 32.759748 16.724875
2009-09-29 07:50:14 51°20.008 2°52.656 17.3997 4.283677 32.724078 16.724875
2009-09-29 07:50:20 51°20.027 2°52.658 17.3981 4.285234 32.736718 16.724875
2009-09-29 07:50:25 51°20.042 2°52.66 17.3975 4.288969 32.769253 16.690051
2009-09-29 07:50:29 51°20.054 2°52.662 17.3983 4.2898 32.77634 16.724875
2009-09-29 07:50:34 51°20.069 2°52.664 17.3969 4.2898 32.77634 16.724875
2009-09-29 07:50:40 51°20.087 2°52.666 17.3956 4.289488 32.774329 16.724875
2009-09-29 07:50:45 51°20.103 2°52.668 17.3972 4.289073 32.771432 16.690051
2009-09-29 07:50:50 51°20.118 2°52.67 17.3952 4.289177 32.772318 16.690051
2009-09-29 07:50:54 51°20.13 2°52.671 17.3968 4.289177 32.772318 16.724875
2009-09-29 07:51:00 51°20.148 2°52.673 17.3953 4.288969 32.771193 16.724875
2009-09-29 07:51:05 51°20.163 2°52.675 17.394 4.288969 32.771193 16.724875
2009-09-29 07:51:09 51°20.175 2°52.676 17.3942 4.28897 32.771839 16.724875
2009-09-29 07:51:14 51°20.19 2°52.678 17.3938 4.289177 32.774258 16.724875
2009-09-29 07:51:20 51°20.209 2°52.68 17.39 4.288658 32.770475 16.690051
2009-09-29 07:51:24 51°20.221 2°52.681 17.3905 4.289177 32.774905 16.724875
2009-09-29 07:51:29 51°20.236 2°52.683 17.3907 4.28897 32.773133 16.690051
2009-09-29 07:51:35 51°20.254 2°52.685 17.3915 4.28897 32.773133 16.690051
2009-09-29 07:51:40 51°20.268 2°52.687 17.3897 4.289281 32.775791 16.724875
2009-09-29 07:51:44 51°20.28 2°52.688 17.3878 4.289073 32.775312 16.724875
2009-09-29 07:51:49 51°20.295 2°52.69 17.3849 4.288451 32.769996 16.724875
2009-09-29 07:51:54 51°20.311 2°52.692 17.3849 4.288866 32.774833 16.724875
2009-09-29 07:52:00 51°20.329 2°52.694 17.3896 4.288762 32.774594 16.724875
2009-09-29 07:52:05 51°20.344 2°52.696 17.3851 4.288762 32.774594 16.724875
2009-09-29 07:52:09 51°20.356 2°52.697 17.388 4.288036 32.769038 16.724875
2009-09-29 07:52:14 51°20.371 2°52.699 17.3857 4.288866 32.776774 16.724875
2009-09-29 07:52:20 51°20.389 2°52.702 17.3865 4.288243 32.772751 16.724875
2009-09-29 07:52:24 51°20.401 2°52.703 17.3864 4.288451 32.775817 16.724875
2009-09-29 07:52:29 51°20.416 2°52.705 17.3838 4.288451 32.77517 16.724875
2009-09-29 07:52:34 51°20.431 2°52.707 17.3807 4.288451 32.77517 16.724875
2009-09-29 07:52:40 51°20.45 2°52.709 17.3792 4.287517 32.767195 16.759699
2009-09-29 07:52:45 51°20.465 2°52.711 17.3781 4.288451 32.775817 16.724875
2009-09-29 07:52:50 51°20.48 2°52.713 17.3773 4.287205 32.765183 16.724875
2009-09-29 07:52:54 51°20.492 2°52.714 17.3776 4.288036 32.772272 16.724875
2009-09-29 07:53:00 51°20.511 2°52.716 17.3748 4.288243 32.774691 16.759699
2009-09-29 07:53:05 51°20.526 2°52.718 17.3761 4.288243 32.774691 16.759699
2009-09-29 07:53:09 51°20.538 2°52.719 17.3769 4.288243 32.776632 16.724875
2009-09-29 07:53:14 51°20.554 2°52.721 17.3764 4.287517 32.772369 16.724875
2009-09-29 07:53:20 51°20.572 2°52.724 17.3758 4.287517 32.773663 16.724875
2009-09-29 07:53:24 51°20.585 2°52.725 17.375 4.286687 32.767867 16.759699
2009-09-29 07:53:29 51°20.6 2°52.728 17.3762 4.287206 32.772945 16.724875
2009-09-29 07:53:35 51°20.619 2°52.731 17.3738 4.287206 32.772945 16.724875
2009-09-29 07:53:40 51°20.633 2°52.732 17.3733 4.287102 32.772706 16.724875
2009-09-29 07:53:44 51°20.646 2°52.733 17.3741 4.287413 32.774718 16.724875
2009-09-29 07:53:50 51°20.664 2°52.735 17.3733 4.284923 32.754093 16.759699
2009-09-29 07:53:54 51°20.676 2°52.737 17.3716 4.285857 32.76207 16.759699
2009-09-29 07:54:00 51°20.694 2°52.739 17.374 4.286998 32.773114 16.759699
2009-09-29 07:54:05 51°20.709 2°52.741 17.3716 4.286998 32.773114 16.759699
2009-09-29 07:54:10 51°20.724 2°52.743 17.3684 4.286064 32.765136 16.759699
2009-09-29 07:54:14 51°20.736 2°52.745 17.3665 4.285753 32.763124 16.759699
2009-09-29 07:54:20 51°20.754 2°52.748 17.3671 4.28596 32.764897 16.759699
2009-09-29 07:54:24 51°20.766 2°52.749 17.3677 4.278074 32.698189 16.759699
2009-09-29 07:54:29 51°20.781 2°52.751 17.3686 4.284611 32.754668 16.759699
2009-09-29 07:54:35 51°20.798 2°52.754 17.3663 4.284611 32.754668 16.759699
2009-09-29 07:54:40 51°20.812 2°52.755 17.3632 4.28596 32.766191 16.759699
2009-09-29 07:54:44 51°20.824 2°52.757 17.3652 4.286272 32.770144 16.794523
2009-09-29 07:54:49 51°20.839 2°52.759 17.3647 4.286168 32.769905 16.759699
2009-09-29 07:54:54 51°20.854 2°52.761 17.3644 4.285234 32.762574 16.794523
2009-09-29 07:55:00 51°20.872 2°52.764 17.3674 4.285234 32.763221 16.794523
2009-09-29 07:55:05 51°20.887 2°52.766 17.3659 4.285234 32.763221 16.794523
2009-09-29 07:55:09 51°20.899 2°52.767 17.3643 4.284611 32.758549 16.794523
2009-09-29 07:55:14 51°20.913 2°52.769 17.3657 4.285545 32.767821 16.794523
2009-09-29 07:55:20 51°20.931 2°52.772 17.3654 4.285338 32.766048 16.759699
2009-09-29 07:55:25 51°20.946 2°52.773 17.3647 4.283989 32.755171 16.794523
2009-09-29 07:55:29 51°20.959 2°52.775 17.3652 4.284508 32.759603 16.794523
2009-09-29 07:55:34 51°20.974 2°52.776 17.3638 4.284508 32.759603 16.794523
2009-09-29 07:55:40 51°20.992 2°52.779 17.3655 4.284715 32.761376 16.794523
2009-09-29 07:55:45 51°21.007 2°52.781 17.3665 4.284611 32.76049 16.794523
2009-09-29 07:55:50 51°21.023 2°52.783 17.3684 4.28513 32.765569 16.794523
2009-09-29 07:55:54 51°21.035 2°52.785 17.3677 4.28513 32.765569 16.794523
2009-09-29 07:56:00 51°21.053 2°52.788 17.3699 4.285234 32.766456 16.794523
2009-09-29 07:56:04 51°21.065 2°52.79 17.3704 4.285234 32.766456 16.794523
2009-09-29 07:56:09 51°21.08 2°52.793 17.3701 4.283781 32.753398 16.794523
2009-09-29 07:56:15 51°21.098 2°52.796 17.3719 4.284404 32.759364 16.794523
2009-09-29 07:56:20 51°21.113 2°52.8 17.3717 4.283677 32.752511 16.829347
2009-09-29 07:56:25 51°21.129 2°52.802 17.371 4.284196 32.756297 16.794523
2009-09-29 07:56:29 51°21.141 2°52.805 17.3723 4.285545 32.767174 16.829347
2009-09-29 07:56:34 51°21.156 2°52.808 17.373 4.285545 32.767174 16.829347
2009-09-29 07:56:40 51°21.174 2°52.812 17.3738 4.285442 32.764994 16.794523
2009-09-29 07:56:45 51°21.189 2°52.816 17.3742 4.286064 32.769665 16.829347
2009-09-29 07:56:49 51°21.201 2°52.819 17.3758 4.285442 32.764347 16.829347
2009-09-29 07:56:54 51°21.216 2°52.821 17.3769 4.285857 32.767245 16.829347
2009-09-29 07:57:00 51°21.235 2°52.826 17.3776 4.28513 32.761687 16.829347
2009-09-29 07:57:05 51°21.249 2°52.829 17.3785 4.28513 32.761687 16.829347
2009-09-29 07:57:09 51°21.261 2°52.832 17.3797 4.285649 32.765472 16.829347
2009-09-29 07:57:14 51°21.276 2°52.834 17.3799 4.28513 32.760393 16.829347
2009-09-29 07:57:20 51°21.294 2°52.839 17.3804 4.286894 32.774816 16.829347
2009-09-29 07:57:25 51°21.309 2°52.841 17.3813 4.285857 32.764657 16.829347
2009-09-29 07:57:29 51°21.321 2°52.844 17.3802 4.287725 32.779318 16.829347
2009-09-29 07:57:34 51°21.336 2°52.847 17.3817 4.287725 32.779318 16.829347
2009-09-29 07:57:40 51°21.354 2°52.85 17.3828 4.286272 32.766262 16.829347
2009-09-29 07:57:45 51°21.369 2°52.853 17.3816 4.288243 32.782456 16.829347
2009-09-29 07:57:50 51°21.384 2°52.857 17.3806 4.288347 32.782695 16.829347
2009-09-29 07:57:54 51°21.396 2°52.86 17.3819 4.287932 32.778503 16.829347
2009-09-29 07:58:00 51°21.414 2°52.863 17.3823 4.288555 32.783174 16.864171
2009-09-29 07:58:05 51°21.428 2°52.867 17.3824 4.288555 32.783174 16.864171
2009-09-29 07:58:09 51°21.44 2°52.87 17.3824 4.288866 32.785833 16.864171
2009-09-29 07:58:14 51°21.455 2°52.873 17.3839 4.289385 32.789617 16.864171
2009-09-29 07:58:20 51°21.472 2°52.877 17.3849 4.290838 32.802027 16.864171
2009-09-29 07:58:24 51°21.484 2°52.88 17.3878 4.289592 32.79139 16.864171
2009-09-29 07:58:29 51°21.499 2°52.884 17.3884 4.287932 32.776561 16.864171
2009-09-29 07:58:35 51°21.517 2°52.888 17.3907 4.287932 32.776561 16.864171
2009-09-29 07:58:40 51°21.532 2°52.891 17.3925 4.28814 32.778334 16.864171
2009-09-29 07:58:44 51°21.544 2°52.893 17.3951 4.290319 32.796947 16.864171
2009-09-29 07:58:49 51°21.559 2°52.897 17.397 4.287413 32.771483 16.898995
2009-09-29 07:58:55 51°21.578 2°52.901 17.398 4.291564 32.805641 16.898995
2009-09-29 07:59:00 51°21.592 2°52.905 17.4019 4.291668 32.805232 16.898995
2009-09-29 07:59:05 51°21.608 2°52.909 17.3991 4.291668 32.805232 16.898995
2009-09-29 07:59:09 51°21.62 2°52.912 17.4002 4.294158 32.82521 16.898995
2009-09-29 07:59:14 51°21.635 2°52.915 17.4022 4.294885 32.830119 16.898995
2009-09-29 07:59:20 51°21.654 2°52.92 17.4045 4.294989 32.829709 16.898995
2009-09-29 07:59:25 51°21.669 2°52.924 17.4035 4.296338 32.839288 16.898995
2009-09-29 07:59:29 51°21.682 2°52.927 17.405 4.296753 32.840889 16.898995
2009-09-29 07:59:34 51°21.697 2°52.931 17.4067 4.296753 32.840889 16.898995
2009-09-29 07:59:40 51°21.715 2°52.936 17.4075 4.297479 32.846445 16.933819
2009-09-29 07:59:45 51°21.731 2°52.94 17.411 4.296545 32.837172 16.933819
2009-09-29 07:59:50 51°21.746 2°52.945 17.4106 4.29696 32.840069 16.898995
2009-09-29 07:59:54 51°21.757 2°52.948 17.4126 4.296856 32.837887 16.933819
2009-09-29 08:00:00 51°21.775 2°52.953 17.4126 4.297687 32.843681 16.933819
2009-09-29 08:00:05 51°21.79 2°52.957 17.4138 4.297687 32.843681 16.933819
2009-09-29 08:00:09 51°21.802 2°52.96 17.4157 4.298413 32.84794 16.933819
2009-09-29 08:00:14 51°21.817 2°52.964 17.4153 4.298932 32.851075 16.933819
2009-09-29 08:00:20 51°21.835 2°52.969 17.4181 4.298309 32.844462 16.933819
2009-09-29 08:00:25 51°21.851 2°52.972 17.4208 4.300177 32.859116 16.968644
2009-09-29 08:00:30 51°21.865 2°52.976 17.4205 4.300385 32.859592 16.968644
2009-09-29 08:00:35 51°21.881 2°52.98 17.4232 4.300385 32.859592 16.968644
2009-09-29 08:00:40 51°21.896 2°52.983 17.4232 4.301319 32.866919 16.968644
2009-09-29 08:00:44 51°21.908 2°52.987 17.4211 4.301423 32.867157 16.933819
2009-09-29 08:00:49 51°21.923 2°52.991 17.4236 4.301526 32.867394 16.968644
2009-09-29 08:00:54 51°21.939 2°52.995 17.424 4.301423 32.865212 16.968644
2009-09-29 08:01:00 51°21.957 2°52.999 17.4256 4.302772 32.875434 16.968644
2009-09-29 08:01:05 51°21.973 2°53.004 17.4256 4.302772 32.875434 16.968644
2009-09-29 08:01:09 51°21.985 2°53.006 17.4279 4.302564 32.871717 16.968644
2009-09-29 08:01:15 51°22.004 2°53.011 17.4322 4.303706 32.881463 16.968644
2009-09-29 08:01:20 51°22.019 2°53.015 17.4339 4.303913 32.882587 16.968644
2009-09-29 08:01:24 51°22.031 2°53.018 17.4324 4.302564 32.870421 16.968644
2009-09-29 08:01:29 51°22.047 2°53.022 17.4318 4.306611 32.903679 16.968644
2009-09-29 08:01:34 51°22.062 2°53.026 17.4342 4.306611 32.903679 16.968644
2009-09-29 08:01:40 51°22.079 2°53.031 17.4344 4.306715 32.903916 16.968644
2009-09-29 08:01:45 51°22.094 2°53.035 17.4338 4.307338 32.907935 16.968644
2009-09-29 08:01:49 51°22.106 2°53.039 17.4372 4.307753 32.910181 16.968644
2009-09-29 08:01:54 51°22.121 2°53.043 17.4377 4.308583 32.915322 16.968644
2009-09-29 08:02:00 51°22.139 2°53.047 17.4404 4.308583 32.914025 17.003468
2009-09-29 08:02:05 51°22.154 2°53.051 17.4416 4.308583 32.914025 17.003468
2009-09-29 08:02:09 51°22.166 2°53.054 17.4401 4.309206 32.918692 17.003468
2009-09-29 08:02:14 51°22.181 2°53.058 17.4409 4.309828 32.923358 17.003468
2009-09-29 08:02:20 51°22.199 2°53.063 17.4407 4.310036 32.924481 17.003468
2009-09-29 08:02:24 51°22.211 2°53.066 17.4422 4.310036 32.923832 17.003468
2009-09-29 08:02:30 51°22.23 2°53.07 17.4444 4.310451 32.926078 17.038292
2009-09-29 08:02:34 51°22.242 2°53.073 17.4444 4.310451 32.926078 17.038292
2009-09-29 08:02:40 51°22.26 2°53.077 17.4491 4.311074 32.930095 17.003468
2009-09-29 08:02:45 51°22.275 2°53.082 17.447 4.311489 32.93299 17.003468
2009-09-29 08:02:50 51°22.289 2°53.085 17.4462 4.310555 32.924368 17.038292
2009-09-29 08:02:55 51°22.304 2°53.089 17.4481 4.312423 32.939665 17.038292
2009-09-29 08:03:00 51°22.319 2°53.093 17.4495 4.312527 32.939902 17.038292
2009-09-29 08:03:05 51°22.333 2°53.097 17.4475 4.312527 32.939902 17.038292
2009-09-29 08:03:10 51°22.348 2°53.1 17.4496 4.313045 32.943033 17.038292
2009-09-29 08:03:15 51°22.363 2°53.104 17.4501 4.312942 32.940199 17.038292
2009-09-29 08:03:20 51°22.378 2°53.107 17.4491 4.312734 32.937778 17.038292
2009-09-29 08:03:25 51°22.394 2°53.111 17.4512 4.313979 32.947759 17.038292
2009-09-29 08:03:29 51°22.406 2°53.114 17.4509 4.314187 32.949531 17.038292
2009-09-29 08:03:34 51°22.421 2°53.118 17.4508 4.314187 32.949531 17.038292
2009-09-29 08:03:40 51°22.439 2°53.124 17.4529 4.313876 32.946224 17.038292
2009-09-29 08:03:45 51°22.454 2°53.127 17.4537 4.314913 32.954433 17.038292
2009-09-29 08:03:49 51°22.466 2°53.13 17.4517 4.315536 32.959098 17.038292
2009-09-29 08:03:54 51°22.481 2°53.134 17.4535 4.315329 32.957327 17.038292
2009-09-29 08:04:00 51°22.499 2°53.139 17.4522 4.315951 32.961343 17.038292
2009-09-29 08:04:05 51°22.513 2°53.142 17.4544 4.315951 32.961343 17.038292
2009-09-29 08:04:09 51°22.525 2°53.146 17.4535 4.316055 32.962878 17.038292
2009-09-29 08:04:15 51°22.544 2°53.15 17.4547 4.316574 32.966658 17.038292
2009-09-29 08:04:20 51°22.559 2°53.154 17.4544 4.316781 32.96778 17.038292
2009-09-29 08:04:25 51°22.574 2°53.158 17.4569 4.317197 32.970673 17.038292
2009-09-29 08:04:30 51°22.589 2°53.162 17.4547 4.317612 32.974217 17.038292
2009-09-29 08:04:34 51°22.602 2°53.165 17.4546 4.317612 32.974217 17.038292
2009-09-29 08:04:40 51°22.62 2°53.169 17.4536 4.317819 32.975988 17.073116
2009-09-29 08:04:45 51°22.635 2°53.173 17.4546 4.317612 32.973567 17.073116
2009-09-29 08:04:50 51°22.651 2°53.177 17.4547 4.317923 32.975575 17.073116
2009-09-29 08:04:54 51°22.663 2°53.18 17.4536 4.318649 32.981776 17.073116
2009-09-29 08:05:00 51°22.682 2°53.184 17.4524 4.317197 32.968725 17.073116
2009-09-29 08:05:05 51°22.697 2°53.188 17.4554 4.317197 32.968725 17.073116
2009-09-29 08:05:09 51°22.709 2°53.191 17.4529 4.318857 32.983547 17.038292
2009-09-29 08:05:15 51°22.728 2°53.195 17.4522 4.319168 32.986205 17.073116
2009-09-29 08:05:20 51°22.743 2°53.199 17.4522 4.319999 32.993292 17.073116
2009-09-29 08:05:25 51°22.758 2°53.203 17.451 4.320206 32.995064 17.073116
2009-09-29 08:05:30 51°22.773 2°53.206 17.4485 4.320518 32.997721 17.073116
2009-09-29 08:05:34 51°22.785 2°53.209 17.4491 4.320518 32.997721 17.073116
2009-09-29 08:05:40 51°22.803 2°53.213 17.4485 4.320414 32.996835 17.073116
2009-09-29 08:05:45 51°22.819 2°53.217 17.4468 4.320829 33.000379 17.073116
2009-09-29 08:05:49 51°22.83 2°53.219 17.4455 4.320829 33.001029 17.073116
2009-09-29 08:05:55 51°22.849 2°53.223 17.4433 4.321037 33.003451 17.073116
2009-09-29 08:06:00 51°22.864 2°53.227 17.4422 4.321037 33.004752 17.073116
2009-09-29 08:06:05 51°22.879 2°53.23 17.4431 4.321037 33.004752 17.073116
2009-09-29 08:06:09 51°22.891 2°53.233 17.4417 4.321348 33.008061 17.073116
2009-09-29 08:06:14 51°22.906 2°53.237 17.442 4.32114 33.006289 17.073116
2009-09-29 08:06:20 51°22.925 2°53.241 17.4417 4.321348 33.008711 17.073116
2009-09-29 08:06:25 51°22.94 2°53.245 17.4385 4.320725 33.004696 17.10794
2009-09-29 08:06:29 51°22.952 2°53.248 17.4399 4.321037 33.009305 17.073116
2009-09-29 08:06:34 51°22.968 2°53.252 17.442 4.321037 33.009305 17.073116
2009-09-29 08:06:40 51°22.985 2°53.258 17.4393 4.321659 33.015273 17.073116
2009-09-29 08:06:45 51°23 2°53.262 17.4375 4.321348 33.013265 17.10794
2009-09-29 08:06:49 51°23.012 2°53.264 17.4385 4.321763 33.01746 17.073116
2009-09-29 08:06:55 51°23.03 2°53.27 17.4393 4.321556 33.016339 17.073116
2009-09-29 08:07:00 51°23.045 2°53.273 17.4386 4.321971 33.019884 17.073116
2009-09-29 08:07:05 51°23.059 2°53.278 17.441 4.321971 33.019884 17.073116
2009-09-29 08:07:10 51°23.074 2°53.28 17.4384 4.322386 33.023429 17.073116
2009-09-29 08:07:14 51°23.086 2°53.283 17.4388 4.322593 33.025852 17.073116
2009-09-29 08:07:20 51°23.105 2°53.288 17.4389 4.322593 33.026503 17.073116
2009-09-29 08:07:25 51°23.12 2°53.291 17.4365 4.322697 33.02804 17.073116
2009-09-29 08:07:30 51°23.135 2°53.296 17.4368 4.322905 33.029162 17.10794
2009-09-29 08:07:35 51°23.151 2°53.299 17.4361 4.322905 33.029162 17.10794
2009-09-29 08:07:40 51°23.166 2°53.303 17.4372 4.322075 33.022723 17.10794
2009-09-29 08:07:44 51°23.178 2°53.307 17.4367 4.323009 33.030699 17.073116
2009-09-29 08:07:49 51°23.194 2°53.311 17.4347 4.32332 33.033358 17.10794
2009-09-29 08:07:55 51°23.212 2°53.315 17.437 4.323527 33.035782 17.10794
2009-09-29 08:08:00 51°23.228 2°53.319 17.4371 4.32332 33.035312 17.073116
2009-09-29 08:08:05 51°23.243 2°53.322 17.4371 4.32332 33.035312 17.073116
2009-09-29 08:08:09 51°23.255 2°53.325 17.4388 4.323735 33.038857 17.10794
2009-09-29 08:08:15 51°23.273 2°53.329 17.4372 4.323424 33.036198 17.10794
2009-09-29 08:08:20 51°23.288 2°53.332 17.4385 4.323839 33.039744 17.10794
2009-09-29 08:08:25 51°23.304 2°53.336 17.4389 4.324046 33.041517 17.10794
2009-09-29 08:08:29 51°23.316 2°53.34 17.4374 4.32415 33.042403 17.10794
2009-09-29 08:08:34 51°23.331 2°53.344 17.4391 4.32415 33.042403 17.10794
2009-09-29 08:08:40 51°23.349 2°53.348 17.4406 4.324254 33.042638 17.10794
2009-09-29 08:08:45 51°23.364 2°53.351 17.4392 4.324565 33.045297 17.10794
2009-09-29 08:08:49 51°23.377 2°53.355 17.44 4.324669 33.046184 17.10794
2009-09-29 08:08:54 51°23.392 2°53.359 17.4383 4.324462 33.04376 17.10794
2009-09-29 08:09:00 51°23.41 2°53.364 17.441 4.32498 33.048192 17.142764
2009-09-29 08:09:05 51°23.425 2°53.368 17.4418 4.32498 33.048192 17.142764
2009-09-29 08:09:10 51°23.44 2°53.372 17.4415 4.324669 33.045532 17.10794
2009-09-29 08:09:14 51°23.452 2°53.375 17.4406 4.32498 33.04754 17.10794
2009-09-29 08:09:20 51°23.47 2°53.38 17.4391 4.324669 33.044881 17.10794
2009-09-29 08:09:24 51°23.482 2°53.383 17.4401 4.32498 33.04754 17.10794
2009-09-29 08:09:30 51°23.501 2°53.387 17.4402 4.32498 33.04754 17.142764
2009-09-29 08:09:34 51°23.513 2°53.391 17.442 4.32498 33.04754 17.142764
2009-09-29 08:09:40 51°23.531 2°53.396 17.4401 4.325084 33.047775 17.10794
2009-09-29 08:09:44 51°23.544 2°53.398 17.4398 4.325707 33.053093 17.142764
2009-09-29 08:09:49 51°23.559 2°53.403 17.4404 4.324773 33.045116 17.142764
2009-09-29 08:09:55 51°23.578 2°53.407 17.442 4.325707 33.053093 17.142764
2009-09-29 08:10:00 51°23.593 2°53.412 17.4415 4.325603 33.052207 17.142764
2009-09-29 08:10:05 51°23.608 2°53.415 17.4416 4.325603 33.052207 17.142764
2009-09-29 08:10:09 51°23.621 2°53.419 17.4414 4.325811 33.054631 17.142764
2009-09-29 08:10:15 51°23.639 2°53.423 17.4422 4.326122 33.056639 17.142764
2009-09-29 08:10:20 51°23.655 2°53.428 17.4411 4.325811 33.053328 17.142764
2009-09-29 08:10:25 51°23.67 2°53.432 17.4416 4.325707 33.052442 17.142764
2009-09-29 08:10:29 51°23.683 2°53.436 17.4407 4.326433 33.057995 17.142764
2009-09-29 08:10:35 51°23.701 2°53.44 17.4427 4.326433 33.057995 17.142764
2009-09-29 08:10:40 51°23.717 2°53.445 17.4428 4.326745 33.061306 17.142764
2009-09-29 08:10:45 51°23.732 2°53.448 17.4435 4.32716 33.064852 17.142764
2009-09-29 08:10:49 51°23.745 2°53.452 17.4435 4.327367 33.065973 17.142764
2009-09-29 08:10:54 51°23.76 2°53.456 17.4458 4.327471 33.066859 17.142764
2009-09-29 08:11:00 51°23.779 2°53.461 17.4449 4.326018 33.054449 17.142764
2009-09-29 08:11:05 51°23.794 2°53.465 17.4441 4.326018 33.054449 17.142764
2009-09-29 08:11:09 51°23.807 2°53.469 17.4459 4.327679 33.06798 17.142764
2009-09-29 08:11:15 51°23.826 2°53.473 17.4439 4.328094 33.072178 17.142764
2009-09-29 08:11:20 51°23.841 2°53.477 17.4457 4.327679 33.06798 17.142764
2009-09-29 08:11:25 51°23.857 2°53.481 17.4469 4.328509 33.075072 17.142764
2009-09-29 08:11:30 51°23.873 2°53.485 17.4462 4.328717 33.076193 17.142764
2009-09-29 08:11:34 51°23.886 2°53.488 17.4466 4.328717 33.076193 17.142764
2009-09-29 08:11:40 51°23.904 2°53.492 17.4467 4.328094 33.070874 17.177588
2009-09-29 08:11:45 51°23.92 2°53.496 17.4481 4.329236 33.079973 17.142764
2009-09-29 08:11:50 51°23.935 2°53.501 17.4479 4.327886 33.069101 17.177588
2009-09-29 08:11:54 51°23.948 2°53.503 17.4485 4.329754 33.084405 17.177588
2009-09-29 08:12:00 51°23.966 2°53.508 17.4501 4.329028 33.077548 17.177588
2009-09-29 08:12:04 51°23.979 2°53.51 17.4532 4.329028 33.077548 17.177588
2009-09-29 08:12:09 51°23.994 2°53.514 17.4532 4.329962 33.085526 17.177588
2009-09-29 08:12:15 51°24.012 2°53.519 17.4538 4.330273 33.087533 17.177588
2009-09-29 08:12:20 51°24.027 2°53.524 17.4545 4.329962 33.084874 17.177588
2009-09-29 08:12:25 51°24.042 2°53.527 17.4575 4.331415 33.096632 17.177588
2009-09-29 08:12:30 51°24.057 2°53.532 17.4582 4.331623 33.0971 17.177588
2009-09-29 08:12:36 51°24.073 2°53.536 17.4594 4.331623 33.0971 17.177588
2009-09-29 08:12:40 51°24.085 2°53.541 17.4608 4.33183 33.097569 17.177588
2009-09-29 08:12:45 51°24.099 2°53.544 17.4628 4.33401 33.115531 17.177588
2009-09-29 08:12:50 51°24.114 2°53.548 17.4657 4.334528 33.118659 17.212412
2009-09-29 08:12:55 51°24.129 2°53.551 17.4665 4.336085 33.131303 17.177588
2009-09-29 08:13:00 51°24.144 2°53.555 17.4692 4.3365 33.133543 17.212412
2009-09-29 08:13:05 51°24.159 2°53.558 17.4688 4.3365 33.133543 17.212412
2009-09-29 08:13:09 51°24.171 2°53.561 17.4716 4.337746 33.142875 17.212412
2009-09-29 08:13:14 51°24.186 2°53.564 17.4717 4.337331 33.138023 17.212412
2009-09-29 08:13:20 51°24.204 2°53.569 17.4737 4.338991 33.1509 17.212412
2009-09-29 08:13:25 51°24.22 2°53.573 17.4765 4.338576 33.145395 17.177588
2009-09-29 08:13:29 51°24.232 2°53.575 17.4768 4.340755 33.162704 17.177588
2009-09-29 08:13:34 51°24.247 2°53.579 17.4789 4.340755 33.162704 17.177588
2009-09-29 08:13:40 51°24.266 2°53.583 17.4827 4.341586 33.168488 17.177588
2009-09-29 08:13:45 51°24.281 2°53.587 17.4837 4.342624 33.176046 17.177588
2009-09-29 08:13:50 51°24.296 2°53.591 17.4855 4.34335 33.180944 17.212412
2009-09-29 08:13:55 51°24.311 2°53.596 17.485 4.343558 33.181409 17.212412
2009-09-29 08:14:00 51°24.326 2°53.598 17.4866 4.344077 33.183881 17.212412
2009-09-29 08:14:05 51°24.341 2°53.603 17.4886 4.344077 33.183881 17.212412
2009-09-29 08:14:10 51°24.356 2°53.606 17.4907 4.344699 33.187891 17.247236
2009-09-29 08:14:14 51°24.368 2°53.61 17.49 4.344699 33.185931 17.212412
2009-09-29 08:14:20 51°24.386 2°53.614 17.4924 4.345011 33.186629 17.247236
2009-09-29 08:14:25 51°24.401 2°53.618 17.4926 4.34636 33.196843 17.212412
2009-09-29 08:14:30 51°24.416 2°53.622 17.4944 4.347294 33.203512 17.212412
2009-09-29 08:14:35 51°24.431 2°53.626 17.4954 4.347294 33.203512 17.212412
2009-09-29 08:14:40 51°24.447 2°53.629 17.4919 4.347605 33.20421 17.212412
2009-09-29 08:14:44 51°24.459 2°53.632 17.4928 4.348228 33.208873 17.247236
2009-09-29 08:14:49 51°24.474 2°53.636 17.4947 4.348539 33.210224 17.247236
2009-09-29 08:14:55 51°24.493 2°53.64 17.4943 4.348643 33.209803 17.212412
2009-09-29 08:15:00 51°24.508 2°53.644 17.4937 4.349577 33.217124 17.247236
2009-09-29 08:15:05 51°24.523 2°53.648 17.4964 4.349577 33.217124 17.247236
2009-09-29 08:15:09 51°24.535 2°53.651 17.4977 4.349162 33.212926 17.212412
2009-09-29 08:15:15 51°24.554 2°53.655 17.4962 4.350096 33.220901 17.247236
2009-09-29 08:15:20 51°24.569 2°53.659 17.4962 4.350511 33.223792 17.212412
2009-09-29 08:15:25 51°24.584 2°53.663 17.4956 4.350719 33.22491 17.247236
2009-09-29 08:15:29 51°24.596 2°53.667 17.4949 4.350719 33.224256 17.247236
2009-09-29 08:15:34 51°24.611 2°53.67 17.4969 4.350719 33.224256 17.247236
2009-09-29 08:15:40 51°24.629 2°53.676 17.4972 4.350407 33.220944 17.247236
2009-09-29 08:15:45 51°24.644 2°53.679 17.4958 4.351238 33.227379 17.247236
2009-09-29 08:15:49 51°24.656 2°53.682 17.4978 4.351445 33.228497 17.247236
2009-09-29 08:15:54 51°24.671 2°53.686 17.498 4.351238 33.226725 17.247236
2009-09-29 08:16:00 51°24.69 2°53.69 17.4976 4.350926 33.224067 17.247236
2009-09-29 08:16:05 51°24.705 2°53.694 17.4971 4.350926 33.224067 17.247236
2009-09-29 08:16:09 51°24.717 2°53.697 17.4969 4.35186 33.232042 17.247236
2009-09-29 08:16:15 51°24.735 2°53.702 17.4973 4.351134 33.225839 17.247236
2009-09-29 08:16:20 51°24.75 2°53.705 17.4989 4.351964 33.232274 17.247236
2009-09-29 08:16:24 51°24.763 2°53.708 17.4986 4.3502 33.21721 17.247236
2009-09-29 08:16:30 51°24.781 2°53.711 17.5004 4.349992 33.215438 17.247236
2009-09-29 08:16:35 51°24.797 2°53.715 17.4988 4.349992 33.215438 17.247236
2009-09-29 08:16:40 51°24.812 2°53.719 17.4956 4.3502 33.21721 17.247236
2009-09-29 08:16:45 51°24.827 2°53.723 17.4955 4.350511 33.219869 17.247236
2009-09-29 08:16:50 51°24.842 2°53.726 17.4977 4.350719 33.221641 17.247236
2009-09-29 08:16:54 51°24.855 2°53.729 17.4972 4.351134 33.224531 17.247236
2009-09-29 08:17:00 51°24.873 2°53.733 17.4976 4.350511 33.218561 17.247236
2009-09-29 08:17:05 51°24.888 2°53.737 17.4995 4.350511 33.218561 17.247236
2009-09-29 08:17:09 51°24.9 2°53.74 17.4986 4.350719 33.220333 17.247236
2009-09-29 08:17:15 51°24.919 2°53.745 17.4982 4.351549 33.228076 17.247236
2009-09-29 08:17:20 51°24.934 2°53.749 17.4962 4.350615 33.220101 17.247236
2009-09-29 08:17:25 51°24.949 2°53.753 17.4986 4.350615 33.220101 17.247236
2009-09-29 08:17:29 51°24.961 2°53.756 17.4953 4.350926 33.222759 17.247236
2009-09-29 08:17:34 51°24.976 2°53.761 17.4991 4.350926 33.222759 17.247236
2009-09-29 08:17:40 51°24.995 2°53.765 17.4952 4.350304 33.217443 17.247236
2009-09-29 08:17:45 51°25.01 2°53.77 17.4962 4.349992 33.214131 17.247236
2009-09-29 08:17:50 51°25.026 2°53.774 17.4933 4.3502 33.215903 17.247236
2009-09-29 08:17:54 51°25.038 2°53.777 17.4947 4.350304 33.217443 17.247236
2009-09-29 08:18:00 51°25.056 2°53.783 17.5005 4.350096 33.216324 17.247236
2009-09-29 08:18:05 51°25.071 2°53.786 17.4969 4.350096 33.216324 17.247236
2009-09-29 08:18:09 51°25.083 2°53.79 17.4958 4.349888 33.214552 17.28206
2009-09-29 08:18:14 51°25.097 2°53.794 17.4964 4.349992 33.215438 17.247236
2009-09-29 08:18:20 51°25.115 2°53.799 17.4973 4.349577 33.211894 17.247236
2009-09-29 08:18:25 51°25.13 2°53.803 17.4977 4.3502 33.217864 17.247236
2009-09-29 08:18:30 51°25.145 2°53.806 17.4985 4.349785 33.213666 17.247236
2009-09-29 08:18:35 51°25.16 2°53.81 17.4986 4.349785 33.213666 17.247236
2009-09-29 08:18:40 51°25.175 2°53.813 17.5001 4.3502 33.216557 17.28206
2009-09-29 08:18:45 51°25.19 2°53.817 17.4969 4.349992 33.215438 17.247236
2009-09-29 08:18:50 51°25.205 2°53.82 17.4997 4.349681 33.21278 17.247236
2009-09-29 08:18:55 51°25.22 2°53.823 17.499 4.349681 33.21278 17.28206
2009-09-29 08:19:00 51°25.235 2°53.827 17.4984 4.349577 33.211894 17.247236
2009-09-29 08:19:05 51°25.25 2°53.83 17.4965 4.349577 33.211894 17.247236
2009-09-29 08:19:10 51°25.265 2°53.834 17.4985 4.350096 33.215017 17.247236
2009-09-29 08:19:15 51°25.28 2°53.838 17.4988 4.349785 33.212359 17.247236
2009-09-29 08:19:20 51°25.296 2°53.841 17.5002 4.349992 33.214131 17.28206
2009-09-29 08:19:25 51°25.311 2°53.845 17.5004 4.349681 33.211473 17.247236
2009-09-29 08:19:30 51°25.325 2°53.849 17.4985 4.349785 33.212359 17.247236
2009-09-29 08:19:36 51°25.342 2°53.853 17.4999 4.349785 33.212359 17.247236
2009-09-29 08:19:41 51°25.356 2°53.856 17.4972 4.351445 33.227189 17.247236
2009-09-29 08:19:46 51°25.371 2°53.861 17.4985 4.35186 33.23008 17.247236
2009-09-29 08:19:51 51°25.386 2°53.864 17.4988 4.35186 33.229426 17.28206
2009-09-29 08:19:56 51°25.401 2°53.869 17.4971 4.352068 33.230544 17.28206
2009-09-29 08:20:01 51°25.416 2°53.873 17.4982 4.352068 33.230544 17.316884
2009-09-29 08:20:05 51°25.427 2°53.876 17.5008 4.352068 33.230544 17.316884
2009-09-29 08:20:10 51°25.442 2°53.879 17.5002 4.352068 33.231198 17.28206
2009-09-29 08:20:15 51°25.457 2°53.882 17.4993 4.352068 33.231852 17.28206
2009-09-29 08:20:20 51°25.471 2°53.886 17.5022 4.352068 33.231852 17.247236
2009-09-29 08:20:25 51°25.486 2°53.89 17.5016 4.352068 33.231852 17.247236
2009-09-29 08:20:30 51°25.5 2°53.894 17.5023 4.352172 33.232738 17.28206
2009-09-29 08:20:34 51°25.512 2°53.897 17.5021 4.352172 33.232738 17.28206
2009-09-29 08:20:40 51°25.529 2°53.902 17.5036 4.352172 33.232084 17.247236
2009-09-29 08:20:45 51°25.544 2°53.906 17.5048 4.352275 33.232316 17.247236
2009-09-29 08:20:49 51°25.556 2°53.909 17.5058 4.352379 33.233202 17.28206
2009-09-29 08:20:55 51°25.574 2°53.913 17.5067 4.352483 33.233434 17.28206
2009-09-29 08:21:00 51°25.589 2°53.918 17.5077 4.352587 33.233666 17.28206
2009-09-29 08:21:05 51°25.604 2°53.921 17.5055 4.352587 33.233666 17.28206
2009-09-29 08:21:10 51°25.619 2°53.924 17.5079 4.352691 33.234552 17.28206
2009-09-29 08:21:15 51°25.634 2°53.927 17.5103 4.352794 33.235438 17.28206
2009-09-29 08:21:20 51°25.649 2°53.929 17.5111 4.352898 33.235016 17.28206
2009-09-29 08:21:25 51°25.664 2°53.931 17.512 4.353106 33.236134 17.28206
2009-09-29 08:21:29 51°25.676 2°53.933 17.5105 4.353313 33.236598 17.28206
2009-09-29 08:21:34 51°25.691 2°53.935 17.5123 4.353313 33.236598 17.28206
2009-09-29 08:21:40 51°25.708 2°53.937 17.5124 4.353521 33.23837 17.316884
2009-09-29 08:21:45 51°25.723 2°53.939 17.5125 4.353625 33.238602 17.28206
2009-09-29 08:21:49 51°25.734 2°53.941 17.5142 4.353728 33.238834 17.28206
2009-09-29 08:21:55 51°25.752 2°53.943 17.5161 4.353936 33.239298 17.28206
2009-09-29 08:22:00 51°25.767 2°53.945 17.5172 4.354144 33.240416 17.28206
2009-09-29 08:22:05 51°25.782 2°53.946 17.5186 4.354144 33.240416 17.28206
2009-09-29 08:22:09 51°25.794 2°53.948 17.5185 4.354351 33.241534 17.316884
2009-09-29 08:22:15 51°25.812 2°53.949 17.5196 4.354559 33.242651 17.316884
2009-09-29 08:22:20 51°25.827 2°53.952 17.5221 4.354766 33.243769 17.316884
2009-09-29 08:22:25 51°25.842 2°53.953 17.521 4.35487 33.244001 17.316884
2009-09-29 08:22:29 51°25.854 2°53.954 17.5206 4.355078 33.244465 17.316884
2009-09-29 08:22:34 51°25.869 2°53.955 17.5219 4.355078 33.244465 17.316884
2009-09-29 08:22:40 51°25.887 2°53.956 17.5246 4.355389 33.246468 17.316884
2009-09-29 08:22:45 51°25.902 2°53.957 17.5233 4.355597 33.246932 17.316884
2009-09-29 08:22:49 51°25.914 2°53.958 17.5262 4.355804 33.247395 17.316884
2009-09-29 08:22:55 51°25.932 2°53.959 17.5274 4.356012 33.249167 17.316884
2009-09-29 08:23:00 51°25.947 2°53.96 17.5269 4.356115 33.250053 17.316884
2009-09-29 08:23:05 51°25.962 2°53.961 17.5303 4.356115 33.250053 17.316884
2009-09-29 08:23:10 51°25.978 2°53.963 17.5292 4.356323 33.250516 17.316884
2009-09-29 08:23:14 51°25.99 2°53.964 17.5301 4.356531 33.25098 17.351708
2009-09-29 08:23:20 51°26.008 2°53.966 17.5315 4.356738 33.252097 17.316884
2009-09-29 08:23:25 51°26.024 2°53.967 17.5331 4.357049 33.253446 17.316884
2009-09-29 08:23:30 51°26.039 2°53.969 17.5346 4.357257 33.254564 17.351708
2009-09-29 08:23:35 51°26.054 2°53.969 17.538 4.357257 33.254564 17.351708
2009-09-29 08:23:40 51°26.07 2°53.97 17.5372 4.357465 33.255681 17.316884
2009-09-29 08:23:44 51°26.082 2°53.972 17.5357 4.357672 33.256145 17.316884
2009-09-29 08:23:50 51°26.1 2°53.974 17.5371 4.35788 33.257262 17.351708
2009-09-29 08:23:55 51°26.116 2°53.974 17.537 4.358087 33.257725 17.351708
2009-09-29 08:24:00 51°26.131 2°53.977 17.5385 4.358399 33.259728 17.351708
2009-09-29 08:24:05 51°26.147 2°53.978 17.5385 4.358399 33.259728 17.351708
2009-09-29 08:24:09 51°26.159 2°53.98 17.5391 4.358606 33.259537 17.351708
2009-09-29 08:24:15 51°26.178 2°53.982 17.54 4.358814 33.260654 17.351708
2009-09-29 08:24:20 51°26.194 2°53.983 17.5382 4.359021 33.261772 17.386532
2009-09-29 08:24:25 51°26.209 2°53.985 17.539 4.359229 33.262889 17.351708
2009-09-29 08:24:29 51°26.222 2°53.985 17.5393 4.359437 33.26466 17.386532
2009-09-29 08:24:34 51°26.237 2°53.987 17.5423 4.359437 33.26466 17.386532
2009-09-29 08:24:40 51°26.255 2°53.988 17.5433 4.359644 33.265777 17.351708
2009-09-29 08:24:45 51°26.271 2°53.99 17.5424 4.359852 33.266894 17.386532
2009-09-29 08:24:49 51°26.283 2°53.99 17.5428 4.359955 33.267125 17.386532